<?xml version="1.0" encoding="UTF-8" standalone="no" ?>
<gpx xmlns="http://www.topografix.com/GPX/1/1" xmlns:xsi="http://www.w3.org/2001/XMLSchema-instance" xsi:schemaLocation="http://www.topografix.com/GPX/1/1 http://www.topografix.com/GPX/1/1/gpx.xsd" version="1.1" creator="VisuGPX - https://www.visugpx.com">
  <metadata>
    <name>SC 1605g2 53km</name>
  </metadata>
  <trk>
    <name><![CDATA[SC 1605g2 70km]]></name>
    <trkseg>
      <trkpt lat="50.50364" lon="3.46059">
        <ele>19.569234</ele>
        <time>2021-05-13T17:19:38.329Z</time>
      </trkpt>
      <trkpt lat="50.5041" lon="3.45851">
        <ele>19.454898</ele>
        <time>2021-05-13T17:19:58.608Z</time>
      </trkpt>
      <trkpt lat="50.50424" lon="3.45772">
        <ele>19.335587</ele>
        <time>2021-05-13T17:20:05.958Z</time>
      </trkpt>
      <trkpt lat="50.50433" lon="3.4572">
        <ele>19.256551</ele>
        <time>2021-05-13T17:20:10.779Z</time>
      </trkpt>
      <trkpt lat="50.50436" lon="3.45642">
        <ele>19.126826</ele>
        <time>2021-05-13T17:20:17.667Z</time>
      </trkpt>
      <trkpt lat="50.50437" lon="3.45631">
        <ele>19.091542</ele>
        <time>2021-05-13T17:20:18.505Z</time>
      </trkpt>
      <trkpt lat="50.5044" lon="3.45588">
        <ele>18.952024</ele>
        <time>2021-05-13T17:20:22.465Z</time>
      </trkpt>
      <trkpt lat="50.50441" lon="3.45573">
        <ele>18.90287</ele>
        <time>2021-05-13T17:20:23.659Z</time>
      </trkpt>
      <trkpt lat="50.50441" lon="3.45568">
        <ele>18.886447</ele>
        <time>2021-05-13T17:20:24.103Z</time>
      </trkpt>
      <trkpt lat="50.50443" lon="3.45552">
        <ele>18.834205</ele>
        <time>2021-05-13T17:20:25.534Z</time>
      </trkpt>
      <trkpt lat="50.50448" lon="3.45508">
        <ele>18.693335</ele>
        <time>2021-05-13T17:20:29.085Z</time>
      </trkpt>
      <trkpt lat="50.50447" lon="3.4549">
        <ele>18.633999</ele>
        <time>2021-05-13T17:20:30.671Z</time>
      </trkpt>
      <trkpt lat="50.50444" lon="3.45482">
        <ele>18.603714</ele>
        <time>2021-05-13T17:20:31.475Z</time>
      </trkpt>
      <trkpt lat="50.50416" lon="3.45464">
        <ele>18.454057</ele>
        <time>2021-05-13T17:20:35.351Z</time>
      </trkpt>
      <trkpt lat="50.50407" lon="3.45459">
        <ele>18.403878</ele>
        <time>2021-05-13T17:20:36.680Z</time>
      </trkpt>
      <trkpt lat="50.50355" lon="3.45425">
        <ele>18.119885</ele>
        <time>2021-05-13T17:20:44.162Z</time>
      </trkpt>
      <trkpt lat="50.50341" lon="3.45413">
        <ele>18.038012</ele>
        <time>2021-05-13T17:20:46.339Z</time>
      </trkpt>
      <trkpt lat="50.5031" lon="3.45386">
        <ele>17.856683</ele>
        <time>2021-05-13T17:20:50.999Z</time>
      </trkpt>
      <trkpt lat="50.50229" lon="3.45322">
        <ele>17.391537</ele>
        <time>2021-05-13T17:21:02.442Z</time>
      </trkpt>
      <trkpt lat="50.50193" lon="3.45294">
        <ele>17.360096</ele>
        <time>2021-05-13T17:21:08.453Z</time>
      </trkpt>
      <trkpt lat="50.50142" lon="3.45258">
        <ele>17.411926</ele>
        <time>2021-05-13T17:21:17.736Z</time>
      </trkpt>
      <trkpt lat="50.5013" lon="3.45249">
        <ele>17.424129</ele>
        <time>2021-05-13T17:21:19.753Z</time>
      </trkpt>
      <trkpt lat="50.50092" lon="3.45227">
        <ele>17.461178</ele>
        <time>2021-05-13T17:21:26.261Z</time>
      </trkpt>
      <trkpt lat="50.50084" lon="3.45223">
        <ele>17.468999</ele>
        <time>2021-05-13T17:21:27.580Z</time>
      </trkpt>
      <trkpt lat="50.50052" lon="3.45203">
        <ele>17.496839</ele>
        <time>2021-05-13T17:21:32.572Z</time>
      </trkpt>
      <trkpt lat="50.50051" lon="3.45202">
        <ele>17.4906</ele>
        <time>2021-05-13T17:21:32.820Z</time>
      </trkpt>
      <trkpt lat="50.50044" lon="3.45199">
        <ele>17.464223</ele>
        <time>2021-05-13T17:21:33.845Z</time>
      </trkpt>
      <trkpt lat="50.50005" lon="3.45189">
        <ele>17.315478</ele>
        <time>2021-05-13T17:21:39.457Z</time>
      </trkpt>
      <trkpt lat="50.49999" lon="3.45188">
        <ele>17.291575</ele>
        <time>2021-05-13T17:21:40.325Z</time>
      </trkpt>
      <trkpt lat="50.49974" lon="3.45177">
        <ele>17.19745</ele>
        <time>2021-05-13T17:21:44.115Z</time>
      </trkpt>
      <trkpt lat="50.49958" lon="3.45159">
        <ele>17.122228</ele>
        <time>2021-05-13T17:21:46.927Z</time>
      </trkpt>
      <trkpt lat="50.49943" lon="3.45125">
        <ele>17.02433</ele>
        <time>2021-05-13T17:21:50.579Z</time>
      </trkpt>
      <trkpt lat="50.49935" lon="3.45106">
        <ele>16.968234</ele>
        <time>2021-05-13T17:21:52.555Z</time>
      </trkpt>
      <trkpt lat="50.49874" lon="3.44964">
        <ele>16.319408</ele>
        <time>2021-05-13T17:22:05.790Z</time>
      </trkpt>
      <trkpt lat="50.49867" lon="3.44946">
        <ele>16.222376</ele>
        <time>2021-05-13T17:22:07.393Z</time>
      </trkpt>
      <trkpt lat="50.49864" lon="3.44939">
        <ele>16.184252</ele>
        <time>2021-05-13T17:22:08.035Z</time>
      </trkpt>
      <trkpt lat="50.49851" lon="3.44909">
        <ele>16.019452</ele>
        <time>2021-05-13T17:22:10.928Z</time>
      </trkpt>
      <trkpt lat="50.49844" lon="3.44889">
        <ele>15.911435</ele>
        <time>2021-05-13T17:22:12.820Z</time>
      </trkpt>
      <trkpt lat="50.49799" lon="3.44762">
        <ele>15.741121</ele>
        <time>2021-05-13T17:22:25.850Z</time>
      </trkpt>
      <trkpt lat="50.49798" lon="3.44759">
        <ele>15.751765</ele>
        <time>2021-05-13T17:22:26.094Z</time>
      </trkpt>
      <trkpt lat="50.49776" lon="3.4469">
        <ele>16.008614</ele>
        <time>2021-05-13T17:22:34.089Z</time>
      </trkpt>
      <trkpt lat="50.49754" lon="3.44626">
        <ele>16.249452</ele>
        <time>2021-05-13T17:22:41.829Z</time>
      </trkpt>
      <trkpt lat="50.49735" lon="3.44569">
        <ele>16.463053</ele>
        <time>2021-05-13T17:22:49.980Z</time>
      </trkpt>
      <trkpt lat="50.49687" lon="3.44433">
        <ele>18.126291</ele>
        <time>2021-05-13T17:23:11.727Z</time>
      </trkpt>
      <trkpt lat="50.49674" lon="3.44405">
        <ele>18.500829</ele>
        <time>2021-05-13T17:23:16.937Z</time>
      </trkpt>
      <trkpt lat="50.49672" lon="3.44401">
        <ele>18.555234</ele>
        <time>2021-05-13T17:23:17.857Z</time>
      </trkpt>
      <trkpt lat="50.49669" lon="3.44396">
        <ele>18.631912</ele>
        <time>2021-05-13T17:23:18.694Z</time>
      </trkpt>
      <trkpt lat="50.49663" lon="3.44393">
        <ele>18.733705</ele>
        <time>2021-05-13T17:23:19.824Z</time>
      </trkpt>
      <trkpt lat="50.49657" lon="3.44381">
        <ele>18.902705</ele>
        <time>2021-05-13T17:23:22.605Z</time>
      </trkpt>
      <trkpt lat="50.49606" lon="3.44327">
        <ele>19.714381</ele>
        <time>2021-05-13T17:23:34.995Z</time>
      </trkpt>
      <trkpt lat="50.49601" lon="3.44316">
        <ele>19.778106</ele>
        <time>2021-05-13T17:23:37.322Z</time>
      </trkpt>
      <trkpt lat="50.496" lon="3.44307">
        <ele>19.822538</ele>
        <time>2021-05-13T17:23:38.412Z</time>
      </trkpt>
      <trkpt lat="50.49602" lon="3.44292">
        <ele>19.897978</ele>
        <time>2021-05-13T17:23:40.114Z</time>
      </trkpt>
      <trkpt lat="50.49617" lon="3.4426">
        <ele>20.090769</ele>
        <time>2021-05-13T17:23:45.501Z</time>
      </trkpt>
      <trkpt lat="50.49629" lon="3.44231">
        <ele>20.259984</ele>
        <time>2021-05-13T17:23:49.314Z</time>
      </trkpt>
      <trkpt lat="50.49645" lon="3.44201">
        <ele>20.450102</ele>
        <time>2021-05-13T17:23:54.067Z</time>
      </trkpt>
      <trkpt lat="50.49648" lon="3.44196">
        <ele>20.485608</ele>
        <time>2021-05-13T17:23:54.684Z</time>
      </trkpt>
      <trkpt lat="50.49685" lon="3.44131">
        <ele>20.91322</ele>
        <time>2021-05-13T17:24:03.024Z</time>
      </trkpt>
      <trkpt lat="50.49705" lon="3.44106">
        <ele>20.800495</ele>
        <time>2021-05-13T17:24:06.330Z</time>
      </trkpt>
      <trkpt lat="50.49744" lon="3.44059">
        <ele>20.584372</ele>
        <time>2021-05-13T17:24:12.604Z</time>
      </trkpt>
      <trkpt lat="50.49763" lon="3.44038">
        <ele>20.481576</ele>
        <time>2021-05-13T17:24:15.602Z</time>
      </trkpt>
      <trkpt lat="50.49781" lon="3.4402">
        <ele>20.388643</ele>
        <time>2021-05-13T17:24:18.430Z</time>
      </trkpt>
      <trkpt lat="50.4985" lon="3.43976">
        <ele>20.116707</ele>
        <time>2021-05-13T17:24:28.526Z</time>
      </trkpt>
      <trkpt lat="50.49875" lon="3.43953">
        <ele>20.102345</ele>
        <time>2021-05-13T17:24:32.807Z</time>
      </trkpt>
      <trkpt lat="50.49908" lon="3.43909">
        <ele>20.081059</ele>
        <time>2021-05-13T17:24:38.979Z</time>
      </trkpt>
      <trkpt lat="50.49932" lon="3.43869">
        <ele>20.063243</ele>
        <time>2021-05-13T17:24:44.326Z</time>
      </trkpt>
      <trkpt lat="50.49959" lon="3.43822">
        <ele>20.043336</ele>
        <time>2021-05-13T17:24:50.280Z</time>
      </trkpt>
      <trkpt lat="50.49968" lon="3.4381">
        <ele>20.03739</ele>
        <time>2021-05-13T17:24:52.240Z</time>
      </trkpt>
      <trkpt lat="50.50021" lon="3.43737">
        <ele>20.063533</ele>
        <time>2021-05-13T17:25:02.733Z</time>
      </trkpt>
      <trkpt lat="50.50051" lon="3.43694">
        <ele>20.082455</ele>
        <time>2021-05-13T17:25:09.086Z</time>
      </trkpt>
      <trkpt lat="50.50074" lon="3.43662">
        <ele>20.096527</ele>
        <time>2021-05-13T17:25:13.766Z</time>
      </trkpt>
      <trkpt lat="50.50098" lon="3.43629">
        <ele>20.11117</ele>
        <time>2021-05-13T17:25:18.288Z</time>
      </trkpt>
      <trkpt lat="50.50185" lon="3.43497">
        <ele>20.106944</ele>
        <time>2021-05-13T17:25:36.335Z</time>
      </trkpt>
      <trkpt lat="50.50325" lon="3.43292">
        <ele>19.821479</ele>
        <time>2021-05-13T17:26:04.677Z</time>
      </trkpt>
      <trkpt lat="50.5036" lon="3.43218">
        <ele>19.685386</ele>
        <time>2021-05-13T17:26:12.304Z</time>
      </trkpt>
      <trkpt lat="50.50361" lon="3.43212">
        <ele>19.661815</ele>
        <time>2021-05-13T17:26:12.818Z</time>
      </trkpt>
      <trkpt lat="50.50363" lon="3.43211">
        <ele>19.648093</ele>
        <time>2021-05-13T17:26:13.054Z</time>
      </trkpt>
      <trkpt lat="50.50366" lon="3.43201">
        <ele>19.595709</ele>
        <time>2021-05-13T17:26:13.951Z</time>
      </trkpt>
      <trkpt lat="50.50365" lon="3.43199">
        <ele>19.581794</ele>
        <time>2021-05-13T17:26:14.188Z</time>
      </trkpt>
      <trkpt lat="50.50369" lon="3.43196">
        <ele>19.555972</ele>
        <time>2021-05-13T17:26:14.600Z</time>
      </trkpt>
      <trkpt lat="50.50376" lon="3.43191">
        <ele>19.490866</ele>
        <time>2021-05-13T17:26:15.709Z</time>
      </trkpt>
      <trkpt lat="50.50385" lon="3.43181">
        <ele>19.406841</ele>
        <time>2021-05-13T17:26:17.079Z</time>
      </trkpt>
      <trkpt lat="50.50406" lon="3.43154">
        <ele>19.203202</ele>
        <time>2021-05-13T17:26:20.430Z</time>
      </trkpt>
      <trkpt lat="50.50469" lon="3.43071">
        <ele>18.575964</ele>
        <time>2021-05-13T17:26:30.484Z</time>
      </trkpt>
      <trkpt lat="50.50517" lon="3.43003">
        <ele>18.351794</ele>
        <time>2021-05-13T17:26:38.995Z</time>
      </trkpt>
      <trkpt lat="50.50523" lon="3.42993">
        <ele>18.366352</ele>
        <time>2021-05-13T17:26:40.092Z</time>
      </trkpt>
      <trkpt lat="50.50529" lon="3.42984">
        <ele>18.379512</ele>
        <time>2021-05-13T17:26:41.249Z</time>
      </trkpt>
      <trkpt lat="50.50538" lon="3.42968">
        <ele>18.401535</ele>
        <time>2021-05-13T17:26:43.446Z</time>
      </trkpt>
      <trkpt lat="50.50633" lon="3.42818">
        <ele>18.677321</ele>
        <time>2021-05-13T17:27:05.749Z</time>
      </trkpt>
      <trkpt lat="50.50652" lon="3.4279">
        <ele>18.826589</ele>
        <time>2021-05-13T17:27:10.647Z</time>
      </trkpt>
      <trkpt lat="50.50684" lon="3.42741">
        <ele>19.083115</ele>
        <time>2021-05-13T17:27:18.734Z</time>
      </trkpt>
      <trkpt lat="50.50893" lon="3.42426">
        <ele>20.535521</ele>
        <time>2021-05-13T17:28:07.003Z</time>
      </trkpt>
      <trkpt lat="50.50931" lon="3.42378">
        <ele>20.79837</ele>
        <time>2021-05-13T17:28:15.359Z</time>
      </trkpt>
      <trkpt lat="50.50984" lon="3.42324">
        <ele>21.137024</ele>
        <time>2021-05-13T17:28:25.956Z</time>
      </trkpt>
      <trkpt lat="50.50987" lon="3.42321">
        <ele>21.156305</ele>
        <time>2021-05-13T17:28:26.659Z</time>
      </trkpt>
      <trkpt lat="50.51002" lon="3.42307">
        <ele>21.245112</ele>
        <time>2021-05-13T17:28:29.367Z</time>
      </trkpt>
      <trkpt lat="50.51021" lon="3.42292">
        <ele>21.360314</ele>
        <time>2021-05-13T17:28:33.142Z</time>
      </trkpt>
      <trkpt lat="50.51025" lon="3.42289">
        <ele>21.38382</ele>
        <time>2021-05-13T17:28:33.893Z</time>
      </trkpt>
      <trkpt lat="50.51038" lon="3.42282">
        <ele>21.476395</ele>
        <time>2021-05-13T17:28:36.183Z</time>
      </trkpt>
      <trkpt lat="50.5105" lon="3.42275">
        <ele>21.573801</ele>
        <time>2021-05-13T17:28:38.470Z</time>
      </trkpt>
      <trkpt lat="50.5105" lon="3.42275">
        <ele>21.573801</ele>
        <time>2021-05-13T17:28:38.544Z</time>
      </trkpt>
      <trkpt lat="50.5105" lon="3.42275">
        <ele>21.573801</ele>
        <time>2021-05-13T17:28:38.549Z</time>
      </trkpt>
      <trkpt lat="50.51046" lon="3.4226">
        <ele>21.651433</ele>
        <time>2021-05-13T17:28:40.845Z</time>
      </trkpt>
      <trkpt lat="50.5106" lon="3.42232">
        <ele>21.826902</ele>
        <time>2021-05-13T17:28:46.065Z</time>
      </trkpt>
      <trkpt lat="50.51068" lon="3.42217">
        <ele>21.92335</ele>
        <time>2021-05-13T17:28:49.025Z</time>
      </trkpt>
      <trkpt lat="50.51129" lon="3.42133">
        <ele>22.550053</ele>
        <time>2021-05-13T17:29:07.984Z</time>
      </trkpt>
      <trkpt lat="50.51218" lon="3.42052">
        <ele>23.471674</ele>
        <time>2021-05-13T17:29:32.353Z</time>
      </trkpt>
      <trkpt lat="50.51309" lon="3.41999">
        <ele>24.409483</ele>
        <time>2021-05-13T17:29:56.034Z</time>
      </trkpt>
      <trkpt lat="50.51384" lon="3.41976">
        <ele>24.976769</ele>
        <time>2021-05-13T17:30:14.663Z</time>
      </trkpt>
      <trkpt lat="50.51422" lon="3.41972">
        <ele>25.246211</ele>
        <time>2021-05-13T17:30:23.713Z</time>
      </trkpt>
      <trkpt lat="50.51437" lon="3.4197">
        <ele>25.347912</ele>
        <time>2021-05-13T17:30:27.085Z</time>
      </trkpt>
      <trkpt lat="50.51465" lon="3.41959">
        <ele>25.550239</ele>
        <time>2021-05-13T17:30:33.574Z</time>
      </trkpt>
      <trkpt lat="50.51481" lon="3.4195">
        <ele>25.672474</ele>
        <time>2021-05-13T17:30:37.459Z</time>
      </trkpt>
      <trkpt lat="50.51487" lon="3.41945">
        <ele>25.714855</ele>
        <time>2021-05-13T17:30:38.838Z</time>
      </trkpt>
      <trkpt lat="50.5151" lon="3.41926">
        <ele>25.753026</ele>
        <time>2021-05-13T17:30:44.483Z</time>
      </trkpt>
      <trkpt lat="50.51713" lon="3.41925">
        <ele>24.975934</ele>
        <time>2021-05-13T17:31:22.977Z</time>
      </trkpt>
      <trkpt lat="50.51727" lon="3.41926">
        <ele>24.862499</ele>
        <time>2021-05-13T17:31:25.342Z</time>
      </trkpt>
      <trkpt lat="50.51736" lon="3.41927">
        <ele>24.784917</ele>
        <time>2021-05-13T17:31:26.882Z</time>
      </trkpt>
      <trkpt lat="50.51872" lon="3.41918">
        <ele>23.759802</ele>
        <time>2021-05-13T17:31:50.431Z</time>
      </trkpt>
      <trkpt lat="50.5188" lon="3.41917">
        <ele>23.74066</ele>
        <time>2021-05-13T17:31:51.812Z</time>
      </trkpt>
      <trkpt lat="50.51886" lon="3.41916">
        <ele>23.726863</ele>
        <time>2021-05-13T17:31:52.934Z</time>
      </trkpt>
      <trkpt lat="50.51906" lon="3.41912">
        <ele>23.681843</ele>
        <time>2021-05-13T17:31:56.530Z</time>
      </trkpt>
      <trkpt lat="50.52017" lon="3.41913">
        <ele>23.425683</ele>
        <time>2021-05-13T17:32:18.301Z</time>
      </trkpt>
      <trkpt lat="50.52048" lon="3.41921">
        <ele>23.546523</ele>
        <time>2021-05-13T17:32:25.264Z</time>
      </trkpt>
      <trkpt lat="50.52079" lon="3.41929">
        <ele>23.885637</ele>
        <time>2021-05-13T17:32:32.863Z</time>
      </trkpt>
      <trkpt lat="50.52093" lon="3.41932">
        <ele>24.038031</ele>
        <time>2021-05-13T17:32:36.141Z</time>
      </trkpt>
      <trkpt lat="50.52105" lon="3.41935">
        <ele>24.169785</ele>
        <time>2021-05-13T17:32:39.547Z</time>
      </trkpt>
      <trkpt lat="50.52169" lon="3.4195">
        <ele>24.876467</ele>
        <time>2021-05-13T17:32:55.698Z</time>
      </trkpt>
      <trkpt lat="50.52246" lon="3.41966">
        <ele>25.73541</ele>
        <time>2021-05-13T17:33:16.064Z</time>
      </trkpt>
      <trkpt lat="50.52273" lon="3.41971">
        <ele>26.039154</ele>
        <time>2021-05-13T17:33:22.804Z</time>
      </trkpt>
      <trkpt lat="50.52365" lon="3.41989">
        <ele>27.080425</ele>
        <time>2021-05-13T17:33:45.718Z</time>
      </trkpt>
      <trkpt lat="50.52437" lon="3.42011">
        <ele>27.635291</ele>
        <time>2021-05-13T17:34:02.745Z</time>
      </trkpt>
      <trkpt lat="50.52521" lon="3.42029">
        <ele>28.111538</ele>
        <time>2021-05-13T17:34:21.988Z</time>
      </trkpt>
      <trkpt lat="50.52597" lon="3.42045">
        <ele>28.380101</ele>
        <time>2021-05-13T17:34:38.560Z</time>
      </trkpt>
      <trkpt lat="50.52752" lon="3.4208">
        <ele>28.41303</ele>
        <time>2021-05-13T17:35:09.723Z</time>
      </trkpt>
      <trkpt lat="50.52836" lon="3.42099">
        <ele>28.366862</ele>
        <time>2021-05-13T17:35:26.620Z</time>
      </trkpt>
      <trkpt lat="50.5289" lon="3.42111">
        <ele>28.336984</ele>
        <time>2021-05-13T17:35:37.824Z</time>
      </trkpt>
      <trkpt lat="50.53254" lon="3.42189">
        <ele>27.314728</ele>
        <time>2021-05-13T17:36:49.569Z</time>
      </trkpt>
      <trkpt lat="50.53265" lon="3.42192">
        <ele>27.267579</ele>
        <time>2021-05-13T17:36:51.388Z</time>
      </trkpt>
      <trkpt lat="50.53268" lon="3.42193">
        <ele>27.254218</ele>
        <time>2021-05-13T17:36:51.754Z</time>
      </trkpt>
      <trkpt lat="50.53342" lon="3.42208">
        <ele>26.204129</ele>
        <time>2021-05-13T17:37:00.452Z</time>
      </trkpt>
      <trkpt lat="50.53478" lon="3.42237">
        <ele>24.062953</ele>
        <time>2021-05-13T17:37:15.714Z</time>
      </trkpt>
      <trkpt lat="50.53576" lon="3.42263">
        <ele>22.743228</ele>
        <time>2021-05-13T17:37:27.136Z</time>
      </trkpt>
      <trkpt lat="50.53725" lon="3.42291">
        <ele>21.273</ele>
        <time>2021-05-13T17:37:45.996Z</time>
      </trkpt>
      <trkpt lat="50.53826" lon="3.42315">
        <ele>20.543096</ele>
        <time>2021-05-13T17:37:59.114Z</time>
      </trkpt>
      <trkpt lat="50.53907" lon="3.42331">
        <ele>20.033252</ele>
        <time>2021-05-13T17:38:10.038Z</time>
      </trkpt>
      <trkpt lat="50.53965" lon="3.42346">
        <ele>19.67173</ele>
        <time>2021-05-13T17:38:17.547Z</time>
      </trkpt>
      <trkpt lat="50.53968" lon="3.42348">
        <ele>19.648822</ele>
        <time>2021-05-13T17:38:17.970Z</time>
      </trkpt>
      <trkpt lat="50.5398" lon="3.423">
        <ele>19.457508</ele>
        <time>2021-05-13T17:38:23.928Z</time>
      </trkpt>
      <trkpt lat="50.53985" lon="3.4228">
        <ele>19.3969</ele>
        <time>2021-05-13T17:38:26.399Z</time>
      </trkpt>
      <trkpt lat="50.53997" lon="3.42265">
        <ele>19.327328</ele>
        <time>2021-05-13T17:38:29.100Z</time>
      </trkpt>
      <trkpt lat="50.54024" lon="3.4224">
        <ele>19.185996</ele>
        <time>2021-05-13T17:38:34.812Z</time>
      </trkpt>
      <trkpt lat="50.54054" lon="3.42229">
        <ele>19.048293</ele>
        <time>2021-05-13T17:38:40.471Z</time>
      </trkpt>
      <trkpt lat="50.54068" lon="3.42229">
        <ele>18.981732</ele>
        <time>2021-05-13T17:38:43.134Z</time>
      </trkpt>
      <trkpt lat="50.54074" lon="3.4223">
        <ele>18.954942</ele>
        <time>2021-05-13T17:38:44.168Z</time>
      </trkpt>
      <trkpt lat="50.54079" lon="3.4223">
        <ele>18.934968</ele>
        <time>2021-05-13T17:38:45.089Z</time>
      </trkpt>
      <trkpt lat="50.54128" lon="3.42236">
        <ele>18.710607</ele>
        <time>2021-05-13T17:38:54.813Z</time>
      </trkpt>
      <trkpt lat="50.54162" lon="3.42227">
        <ele>18.731937</ele>
        <time>2021-05-13T17:39:01.553Z</time>
      </trkpt>
      <trkpt lat="50.54211" lon="3.42191">
        <ele>18.832985</ele>
        <time>2021-05-13T17:39:12.351Z</time>
      </trkpt>
      <trkpt lat="50.5421" lon="3.42175">
        <ele>18.852217</ele>
        <time>2021-05-13T17:39:13.942Z</time>
      </trkpt>
      <trkpt lat="50.54221" lon="3.42162">
        <ele>18.877832</ele>
        <time>2021-05-13T17:39:16.909Z</time>
      </trkpt>
      <trkpt lat="50.54311" lon="3.41984">
        <ele>19.399408</ele>
        <time>2021-05-13T17:39:49.497Z</time>
      </trkpt>
      <trkpt lat="50.5432" lon="3.41974">
        <ele>19.463306</ele>
        <time>2021-05-13T17:39:52.140Z</time>
      </trkpt>
      <trkpt lat="50.54334" lon="3.4196">
        <ele>19.549754</ele>
        <time>2021-05-13T17:39:55.689Z</time>
      </trkpt>
      <trkpt lat="50.54358" lon="3.41944">
        <ele>19.69191</ele>
        <time>2021-05-13T17:40:01.499Z</time>
      </trkpt>
      <trkpt lat="50.54417" lon="3.41925">
        <ele>20.023652</ele>
        <time>2021-05-13T17:40:14.940Z</time>
      </trkpt>
      <trkpt lat="50.54439" lon="3.41907">
        <ele>20.169868</ele>
        <time>2021-05-13T17:40:20.410Z</time>
      </trkpt>
      <trkpt lat="50.54448" lon="3.41892">
        <ele>20.250423</ele>
        <time>2021-05-13T17:40:23.459Z</time>
      </trkpt>
      <trkpt lat="50.54517" lon="3.41725">
        <ele>21.005703</ele>
        <time>2021-05-13T17:40:51.880Z</time>
      </trkpt>
      <trkpt lat="50.5453" lon="3.41694">
        <ele>21.214779</ele>
        <time>2021-05-13T17:40:57.302Z</time>
      </trkpt>
      <trkpt lat="50.5456" lon="3.4153">
        <ele>22.425241</ele>
        <time>2021-05-13T17:41:23.522Z</time>
      </trkpt>
      <trkpt lat="50.54707" lon="3.41187">
        <ele>25.942778</ele>
        <time>2021-05-13T17:42:32.524Z</time>
      </trkpt>
      <trkpt lat="50.54722" lon="3.41157">
        <ele>26.179629</ele>
        <time>2021-05-13T17:42:38.849Z</time>
      </trkpt>
      <trkpt lat="50.5476" lon="3.41105">
        <ele>26.66715</ele>
        <time>2021-05-13T17:42:51.119Z</time>
      </trkpt>
      <trkpt lat="50.54776" lon="3.41089">
        <ele>26.852925</ele>
        <time>2021-05-13T17:42:55.804Z</time>
      </trkpt>
      <trkpt lat="50.54794" lon="3.41076">
        <ele>27.04687</ele>
        <time>2021-05-13T17:43:00.379Z</time>
      </trkpt>
      <trkpt lat="50.54828" lon="3.4106">
        <ele>27.392625</ele>
        <time>2021-05-13T17:43:08.509Z</time>
      </trkpt>
      <trkpt lat="50.54933" lon="3.41026">
        <ele>27.494912</ele>
        <time>2021-05-13T17:43:31.427Z</time>
      </trkpt>
      <trkpt lat="50.54954" lon="3.41019">
        <ele>27.503781</ele>
        <time>2021-05-13T17:43:35.635Z</time>
      </trkpt>
      <trkpt lat="50.55128" lon="3.40966">
        <ele>26.901866</ele>
        <time>2021-05-13T17:44:08.746Z</time>
      </trkpt>
      <trkpt lat="50.55256" lon="3.40915">
        <ele>26.330242</ele>
        <time>2021-05-13T17:44:32.736Z</time>
      </trkpt>
      <trkpt lat="50.55329" lon="3.40904">
        <ele>26.070608</ele>
        <time>2021-05-13T17:44:46.341Z</time>
      </trkpt>
      <trkpt lat="50.55443" lon="3.40868">
        <ele>26.483847</ele>
        <time>2021-05-13T17:45:11.083Z</time>
      </trkpt>
      <trkpt lat="50.55459" lon="3.40859">
        <ele>26.593571</ele>
        <time>2021-05-13T17:45:14.994Z</time>
      </trkpt>
      <trkpt lat="50.5544" lon="3.40777">
        <ele>26.959139</ele>
        <time>2021-05-13T17:45:28.050Z</time>
      </trkpt>
      <trkpt lat="50.55423" lon="3.40684">
        <ele>27.797082</ele>
        <time>2021-05-13T17:45:44.021Z</time>
      </trkpt>
      <trkpt lat="50.55426" lon="3.40567">
        <ele>29.180479</ele>
        <time>2021-05-13T17:46:04.641Z</time>
      </trkpt>
      <trkpt lat="50.55428" lon="3.40534">
        <ele>29.580401</ele>
        <time>2021-05-13T17:46:10.824Z</time>
      </trkpt>
      <trkpt lat="50.55438" lon="3.40459">
        <ele>30.483904</ele>
        <time>2021-05-13T17:46:24.836Z</time>
      </trkpt>
      <trkpt lat="50.55455" lon="3.40384">
        <ele>31.321654</ele>
        <time>2021-05-13T17:46:39.923Z</time>
      </trkpt>
      <trkpt lat="50.55477" lon="3.40283">
        <ele>32.444864</ele>
        <time>2021-05-13T17:46:59.504Z</time>
      </trkpt>
      <trkpt lat="50.55504" lon="3.40212">
        <ele>33.320075</ele>
        <time>2021-05-13T17:47:12.027Z</time>
      </trkpt>
      <trkpt lat="50.55519" lon="3.40171">
        <ele>33.397592</ele>
        <time>2021-05-13T17:47:18.786Z</time>
      </trkpt>
      <trkpt lat="50.55532" lon="3.40141">
        <ele>33.326415</ele>
        <time>2021-05-13T17:47:24.005Z</time>
      </trkpt>
      <trkpt lat="50.55516" lon="3.40116">
        <ele>33.257154</ele>
        <time>2021-05-13T17:47:28.060Z</time>
      </trkpt>
      <trkpt lat="50.55488" lon="3.40095">
        <ele>33.163419</ele>
        <time>2021-05-13T17:47:33.800Z</time>
      </trkpt>
      <trkpt lat="50.55412" lon="3.40037">
        <ele>32.912561</ele>
        <time>2021-05-13T17:47:49.067Z</time>
      </trkpt>
      <trkpt lat="50.55397" lon="3.40037">
        <ele>32.900728</ele>
        <time>2021-05-13T17:47:51.754Z</time>
      </trkpt>
      <trkpt lat="50.55374" lon="3.40058">
        <ele>32.880397</ele>
        <time>2021-05-13T17:47:56.227Z</time>
      </trkpt>
      <trkpt lat="50.55351" lon="3.40034">
        <ele>32.859033</ele>
        <time>2021-05-13T17:48:01.534Z</time>
      </trkpt>
      <trkpt lat="50.55179" lon="3.39874">
        <ele>33.157536</ele>
        <time>2021-05-13T17:48:44.929Z</time>
      </trkpt>
      <trkpt lat="50.55146" lon="3.39843">
        <ele>33.315891</ele>
        <time>2021-05-13T17:48:53.261Z</time>
      </trkpt>
      <trkpt lat="50.55012" lon="3.39719">
        <ele>34.045914</ele>
        <time>2021-05-13T17:49:27.451Z</time>
      </trkpt>
      <trkpt lat="50.55017" lon="3.39699">
        <ele>34.11324</ele>
        <time>2021-05-13T17:49:30.495Z</time>
      </trkpt>
      <trkpt lat="50.55023" lon="3.39677">
        <ele>34.188582</ele>
        <time>2021-05-13T17:49:33.809Z</time>
      </trkpt>
      <trkpt lat="50.55031" lon="3.3965">
        <ele>34.282125</ele>
        <time>2021-05-13T17:49:38.108Z</time>
      </trkpt>
      <trkpt lat="50.55043" lon="3.39618">
        <ele>34.400515</ele>
        <time>2021-05-13T17:49:43.487Z</time>
      </trkpt>
      <trkpt lat="50.55059" lon="3.39587">
        <ele>34.535335</ele>
        <time>2021-05-13T17:49:49.362Z</time>
      </trkpt>
      <trkpt lat="50.55243" lon="3.39295">
        <ele>35.451274</ele>
        <time>2021-05-13T17:50:47.563Z</time>
      </trkpt>
      <trkpt lat="50.55256" lon="3.39262">
        <ele>35.468499</ele>
        <time>2021-05-13T17:50:52.247Z</time>
      </trkpt>
      <trkpt lat="50.553" lon="3.39112">
        <ele>35.37955</ele>
        <time>2021-05-13T17:51:11.859Z</time>
      </trkpt>
      <trkpt lat="50.55307" lon="3.39087">
        <ele>35.341092</ele>
        <time>2021-05-13T17:51:14.872Z</time>
      </trkpt>
      <trkpt lat="50.55318" lon="3.39056">
        <ele>35.290502</ele>
        <time>2021-05-13T17:51:19.329Z</time>
      </trkpt>
      <trkpt lat="50.55319" lon="3.39053">
        <ele>35.285422</ele>
        <time>2021-05-13T17:51:19.610Z</time>
      </trkpt>
      <trkpt lat="50.5532" lon="3.39047">
        <ele>35.275256</ele>
        <time>2021-05-13T17:51:20.163Z</time>
      </trkpt>
      <trkpt lat="50.5532" lon="3.39043">
        <ele>35.270165</ele>
        <time>2021-05-13T17:51:20.445Z</time>
      </trkpt>
      <trkpt lat="50.55326" lon="3.3903">
        <ele>35.247679</ele>
        <time>2021-05-13T17:51:21.861Z</time>
      </trkpt>
      <trkpt lat="50.55337" lon="3.3901">
        <ele>35.209426</ele>
        <time>2021-05-13T17:51:24.385Z</time>
      </trkpt>
      <trkpt lat="50.55339" lon="3.39007">
        <ele>35.202472</ele>
        <time>2021-05-13T17:51:24.783Z</time>
      </trkpt>
      <trkpt lat="50.55343" lon="3.38997">
        <ele>35.185667</ele>
        <time>2021-05-13T17:51:25.740Z</time>
      </trkpt>
      <trkpt lat="50.55355" lon="3.38973">
        <ele>35.142111</ele>
        <time>2021-05-13T17:51:29.869Z</time>
      </trkpt>
      <trkpt lat="50.55367" lon="3.38948">
        <ele>35.098461</ele>
        <time>2021-05-13T17:51:33.694Z</time>
      </trkpt>
      <trkpt lat="50.55461" lon="3.38747">
        <ele>36.089735</ele>
        <time>2021-05-13T17:52:10.252Z</time>
      </trkpt>
      <trkpt lat="50.55594" lon="3.3841">
        <ele>38.693803</ele>
        <time>2021-05-13T17:53:10.461Z</time>
      </trkpt>
      <trkpt lat="50.55624" lon="3.38347">
        <ele>39.502387</ele>
        <time>2021-05-13T17:53:24.015Z</time>
      </trkpt>
      <trkpt lat="50.55646" lon="3.38302">
        <ele>40.091173</ele>
        <time>2021-05-13T17:53:34.238Z</time>
      </trkpt>
      <trkpt lat="50.5568" lon="3.38242">
        <ele>40.957022</ele>
        <time>2021-05-13T17:53:48.528Z</time>
      </trkpt>
      <trkpt lat="50.55719" lon="3.3817">
        <ele>42.277885</ele>
        <time>2021-05-13T17:54:06.249Z</time>
      </trkpt>
      <trkpt lat="50.55736" lon="3.38138">
        <ele>42.850644</ele>
        <time>2021-05-13T17:54:13.872Z</time>
      </trkpt>
      <trkpt lat="50.55777" lon="3.38064">
        <ele>44.211172</ele>
        <time>2021-05-13T17:54:31.204Z</time>
      </trkpt>
      <trkpt lat="50.55812" lon="3.37998">
        <ele>45.61332</ele>
        <time>2021-05-13T17:54:48.218Z</time>
      </trkpt>
      <trkpt lat="50.55866" lon="3.37871">
        <ele>48.340608</ele>
        <time>2021-05-13T17:55:17.764Z</time>
      </trkpt>
      <trkpt lat="50.55869" lon="3.37866">
        <ele>48.466994</ele>
        <time>2021-05-13T17:55:19.582Z</time>
      </trkpt>
      <trkpt lat="50.55873" lon="3.3786">
        <ele>48.628391</ele>
        <time>2021-05-13T17:55:21.821Z</time>
      </trkpt>
      <trkpt lat="50.55896" lon="3.37821">
        <ele>49.577295</ele>
        <time>2021-05-13T17:55:32.712Z</time>
      </trkpt>
      <trkpt lat="50.56126" lon="3.37544">
        <ele>58.887656</ele>
        <time>2021-05-13T17:57:10.396Z</time>
      </trkpt>
      <trkpt lat="50.56192" lon="3.37455">
        <ele>61.377721</ele>
        <time>2021-05-13T17:57:38.010Z</time>
      </trkpt>
      <trkpt lat="50.56221" lon="3.37403">
        <ele>62.016061</ele>
        <time>2021-05-13T17:57:50.195Z</time>
      </trkpt>
      <trkpt lat="50.56239" lon="3.37368">
        <ele>62.425323</ele>
        <time>2021-05-13T17:57:57.976Z</time>
      </trkpt>
      <trkpt lat="50.56222" lon="3.37356">
        <ele>62.697633</ele>
        <time>2021-05-13T17:58:02.517Z</time>
      </trkpt>
      <trkpt lat="50.56213" lon="3.37334">
        <ele>62.942004</ele>
        <time>2021-05-13T17:58:07.039Z</time>
      </trkpt>
      <trkpt lat="50.56206" lon="3.3727">
        <ele>63.543895</ele>
        <time>2021-05-13T17:58:16.824Z</time>
      </trkpt>
      <trkpt lat="50.56187" lon="3.37229">
        <ele>63.8487</ele>
        <time>2021-05-13T17:58:24.155Z</time>
      </trkpt>
      <trkpt lat="50.55917" lon="3.36852">
        <ele>63.633995</ele>
        <time>2021-05-13T17:59:35.801Z</time>
      </trkpt>
      <trkpt lat="50.55908" lon="3.36848">
        <ele>63.632173</ele>
        <time>2021-05-13T17:59:37.451Z</time>
      </trkpt>
      <trkpt lat="50.559" lon="3.36847">
        <ele>63.630478</ele>
        <time>2021-05-13T17:59:39.019Z</time>
      </trkpt>
      <trkpt lat="50.55894" lon="3.36844">
        <ele>63.629185</ele>
        <time>2021-05-13T17:59:39.986Z</time>
      </trkpt>
      <trkpt lat="50.55873" lon="3.36834">
        <ele>63.624703</ele>
        <time>2021-05-13T17:59:44.057Z</time>
      </trkpt>
      <trkpt lat="50.55779" lon="3.36696">
        <ele>63.653023</ele>
        <time>2021-05-13T18:00:10.163Z</time>
      </trkpt>
      <trkpt lat="50.55773" lon="3.36684">
        <ele>63.730777</ele>
        <time>2021-05-13T18:00:11.947Z</time>
      </trkpt>
      <trkpt lat="50.55772" lon="3.36671">
        <ele>63.793874</ele>
        <time>2021-05-13T18:00:15.238Z</time>
      </trkpt>
      <trkpt lat="50.55774" lon="3.36646">
        <ele>63.925216</ele>
        <time>2021-05-13T18:00:18.705Z</time>
      </trkpt>
      <trkpt lat="50.55824" lon="3.36479">
        <ele>64.857654</ele>
        <time>2021-05-13T18:00:46.771Z</time>
      </trkpt>
      <trkpt lat="50.55827" lon="3.36467">
        <ele>64.923079</ele>
        <time>2021-05-13T18:00:50.030Z</time>
      </trkpt>
      <trkpt lat="50.55849" lon="3.36387">
        <ele>64.85061</ele>
        <time>2021-05-13T18:01:02.248Z</time>
      </trkpt>
      <trkpt lat="50.55887" lon="3.36238">
        <ele>64.416658</ele>
        <time>2021-05-13T18:01:21.487Z</time>
      </trkpt>
      <trkpt lat="50.55895" lon="3.3618">
        <ele>64.22341</ele>
        <time>2021-05-13T18:01:27.652Z</time>
      </trkpt>
      <trkpt lat="50.55879" lon="3.35799">
        <ele>59.141963</ele>
        <time>2021-05-13T18:02:05.663Z</time>
      </trkpt>
      <trkpt lat="50.55876" lon="3.35493">
        <ele>54.645737</ele>
        <time>2021-05-13T18:02:35.270Z</time>
      </trkpt>
      <trkpt lat="50.5588" lon="3.35367">
        <ele>52.808685</ele>
        <time>2021-05-13T18:02:47.692Z</time>
      </trkpt>
      <trkpt lat="50.55888" lon="3.35288">
        <ele>51.876911</ele>
        <time>2021-05-13T18:02:55.750Z</time>
      </trkpt>
      <trkpt lat="50.55896" lon="3.35226">
        <ele>51.261601</ele>
        <time>2021-05-13T18:03:02.257Z</time>
      </trkpt>
      <trkpt lat="50.55905" lon="3.35166">
        <ele>50.673113</ele>
        <time>2021-05-13T18:03:08.605Z</time>
      </trkpt>
      <trkpt lat="50.55917" lon="3.35057">
        <ele>49.606261</ele>
        <time>2021-05-13T18:03:20.730Z</time>
      </trkpt>
      <trkpt lat="50.55921" lon="3.35037">
        <ele>49.582461</ele>
        <time>2021-05-13T18:03:23.022Z</time>
      </trkpt>
      <trkpt lat="50.55928" lon="3.35051">
        <ele>49.562689</ele>
        <time>2021-05-13T18:03:25.058Z</time>
      </trkpt>
      <trkpt lat="50.55946" lon="3.35074">
        <ele>49.521937</ele>
        <time>2021-05-13T18:03:29.256Z</time>
      </trkpt>
      <trkpt lat="50.55973" lon="3.35093">
        <ele>49.470176</ele>
        <time>2021-05-13T18:03:34.788Z</time>
      </trkpt>
      <trkpt lat="50.55973" lon="3.35093">
        <ele>49.470176</ele>
        <time>2021-05-13T18:03:34.843Z</time>
      </trkpt>
      <trkpt lat="50.56081" lon="3.35113">
        <ele>49.31198</ele>
        <time>2021-05-13T18:03:57.307Z</time>
      </trkpt>
      <trkpt lat="50.56126" lon="3.35149">
        <ele>49.515076</ele>
        <time>2021-05-13T18:04:08.762Z</time>
      </trkpt>
      <trkpt lat="50.56227" lon="3.35269">
        <ele>49.998338</ele>
        <time>2021-05-13T18:04:36.837Z</time>
      </trkpt>
      <trkpt lat="50.56275" lon="3.35383">
        <ele>49.682906</ele>
        <time>2021-05-13T18:04:54.757Z</time>
      </trkpt>
      <trkpt lat="50.56305" lon="3.3544">
        <ele>49.511916</ele>
        <time>2021-05-13T18:05:03.285Z</time>
      </trkpt>
      <trkpt lat="50.56309" lon="3.35446">
        <ele>49.494905</ele>
        <time>2021-05-13T18:05:04.130Z</time>
      </trkpt>
      <trkpt lat="50.56333" lon="3.35472">
        <ele>49.387373</ele>
        <time>2021-05-13T18:05:09.362Z</time>
      </trkpt>
      <trkpt lat="50.56376" lon="3.35506">
        <ele>48.811825</ele>
        <time>2021-05-13T18:05:17.578Z</time>
      </trkpt>
      <trkpt lat="50.56387" lon="3.35515">
        <ele>48.638015</ele>
        <time>2021-05-13T18:05:19.750Z</time>
      </trkpt>
      <trkpt lat="50.5639" lon="3.35495">
        <ele>48.453694</ele>
        <time>2021-05-13T18:05:21.898Z</time>
      </trkpt>
      <trkpt lat="50.56382" lon="3.35329">
        <ele>47.000706</ele>
        <time>2021-05-13T18:05:39.179Z</time>
      </trkpt>
      <trkpt lat="50.56355" lon="3.35209">
        <ele>46.095254</ele>
        <time>2021-05-13T18:05:52.622Z</time>
      </trkpt>
      <trkpt lat="50.56352" lon="3.35167">
        <ele>45.801228</ele>
        <time>2021-05-13T18:05:57.291Z</time>
      </trkpt>
      <trkpt lat="50.56415" lon="3.34974">
        <ele>44.745218</ele>
        <time>2021-05-13T18:06:22.178Z</time>
      </trkpt>
      <trkpt lat="50.5642" lon="3.34961">
        <ele>44.714614</ele>
        <time>2021-05-13T18:06:24.080Z</time>
      </trkpt>
      <trkpt lat="50.56422" lon="3.34949">
        <ele>44.690442</ele>
        <time>2021-05-13T18:06:25.504Z</time>
      </trkpt>
      <trkpt lat="50.56459" lon="3.34786">
        <ele>44.370079</ele>
        <time>2021-05-13T18:06:47.187Z</time>
      </trkpt>
      <trkpt lat="50.56463" lon="3.34772">
        <ele>44.395967</ele>
        <time>2021-05-13T18:06:49.112Z</time>
      </trkpt>
      <trkpt lat="50.56466" lon="3.3476">
        <ele>44.418001</ele>
        <time>2021-05-13T18:06:50.778Z</time>
      </trkpt>
      <trkpt lat="50.56544" lon="3.3456">
        <ele>44.81722</ele>
        <time>2021-05-13T18:07:22.658Z</time>
      </trkpt>
      <trkpt lat="50.56631" lon="3.34416">
        <ele>45.675614</ele>
        <time>2021-05-13T18:07:51.861Z</time>
      </trkpt>
      <trkpt lat="50.56655" lon="3.34341">
        <ele>46.052449</ele>
        <time>2021-05-13T18:08:04.741Z</time>
      </trkpt>
      <trkpt lat="50.56676" lon="3.34233">
        <ele>46.284213</ele>
        <time>2021-05-13T18:08:21.146Z</time>
      </trkpt>
      <trkpt lat="50.56699" lon="3.34188">
        <ele>46.387231</ele>
        <time>2021-05-13T18:08:29.217Z</time>
      </trkpt>
      <trkpt lat="50.56711" lon="3.34175">
        <ele>46.427033</ele>
        <time>2021-05-13T18:08:32.446Z</time>
      </trkpt>
      <trkpt lat="50.56725" lon="3.34202">
        <ele>46.489613</ele>
        <time>2021-05-13T18:08:36.970Z</time>
      </trkpt>
      <trkpt lat="50.56727" lon="3.34205">
        <ele>46.496409</ele>
        <time>2021-05-13T18:08:37.409Z</time>
      </trkpt>
      <trkpt lat="50.56772" lon="3.34291">
        <ele>46.344861</ele>
        <time>2021-05-13T18:08:50.995Z</time>
      </trkpt>
      <trkpt lat="50.56818" lon="3.34392">
        <ele>45.660013</ele>
        <time>2021-05-13T18:09:05.143Z</time>
      </trkpt>
      <trkpt lat="50.56824" lon="3.34411">
        <ele>45.540796</ele>
        <time>2021-05-13T18:09:07.474Z</time>
      </trkpt>
      <trkpt lat="50.56825" lon="3.34416">
        <ele>45.512181</ele>
        <time>2021-05-13T18:09:07.989Z</time>
      </trkpt>
      <trkpt lat="50.56842" lon="3.34472">
        <ele>45.171171</ele>
        <time>2021-05-13T18:09:14.611Z</time>
      </trkpt>
      <trkpt lat="50.56883" lon="3.34606">
        <ele>43.813809</ele>
        <time>2021-05-13T18:09:30.402Z</time>
      </trkpt>
      <trkpt lat="50.56918" lon="3.34649">
        <ele>43.141403</ele>
        <time>2021-05-13T18:09:37.648Z</time>
      </trkpt>
      <trkpt lat="50.57012" lon="3.34744">
        <ele>41.346911</ele>
        <time>2021-05-13T18:09:55.563Z</time>
      </trkpt>
      <trkpt lat="50.57038" lon="3.34799">
        <ele>40.614731</ele>
        <time>2021-05-13T18:10:02.595Z</time>
      </trkpt>
      <trkpt lat="50.5705" lon="3.34814">
        <ele>40.350478</ele>
        <time>2021-05-13T18:10:05.197Z</time>
      </trkpt>
      <trkpt lat="50.57052" lon="3.34815">
        <ele>40.319433</ele>
        <time>2021-05-13T18:10:05.457Z</time>
      </trkpt>
      <trkpt lat="50.57052" lon="3.34815">
        <ele>40.319433</ele>
        <time>2021-05-13T18:10:05.463Z</time>
      </trkpt>
      <trkpt lat="50.57075" lon="3.34831">
        <ele>39.901228</ele>
        <time>2021-05-13T18:10:09.652Z</time>
      </trkpt>
      <trkpt lat="50.5708" lon="3.34836">
        <ele>39.794434</ele>
        <time>2021-05-13T18:10:10.678Z</time>
      </trkpt>
      <trkpt lat="50.57136" lon="3.34844">
        <ele>38.986368</ele>
        <time>2021-05-13T18:10:19.817Z</time>
      </trkpt>
      <trkpt lat="50.57324" lon="3.34907">
        <ele>37.065945</ele>
        <time>2021-05-13T18:10:52.767Z</time>
      </trkpt>
      <trkpt lat="50.57338" lon="3.34901">
        <ele>37.003326</ele>
        <time>2021-05-13T18:10:55.659Z</time>
      </trkpt>
      <trkpt lat="50.57348" lon="3.34894">
        <ele>36.961027</ele>
        <time>2021-05-13T18:10:57.504Z</time>
      </trkpt>
      <trkpt lat="50.57351" lon="3.34909">
        <ele>36.917658</ele>
        <time>2021-05-13T18:10:58.940Z</time>
      </trkpt>
      <trkpt lat="50.57361" lon="3.34934">
        <ele>36.84127</ele>
        <time>2021-05-13T18:11:01.500Z</time>
      </trkpt>
      <trkpt lat="50.57367" lon="3.34943">
        <ele>36.806949</ele>
        <time>2021-05-13T18:11:02.582Z</time>
      </trkpt>
      <trkpt lat="50.57375" lon="3.34955">
        <ele>36.761163</ele>
        <time>2021-05-13T18:11:04.181Z</time>
      </trkpt>
      <trkpt lat="50.57386" lon="3.34967">
        <ele>36.706104</ele>
        <time>2021-05-13T18:11:06.200Z</time>
      </trkpt>
      <trkpt lat="50.57409" lon="3.34992">
        <ele>36.591396</ele>
        <time>2021-05-13T18:11:10.202Z</time>
      </trkpt>
      <trkpt lat="50.57432" lon="3.35018">
        <ele>36.478992</ele>
        <time>2021-05-13T18:11:14.302Z</time>
      </trkpt>
      <trkpt lat="50.57477" lon="3.35061">
        <ele>36.680511</ele>
        <time>2021-05-13T18:11:22.500Z</time>
      </trkpt>
      <trkpt lat="50.57495" lon="3.35075">
        <ele>36.757698</ele>
        <time>2021-05-13T18:11:25.658Z</time>
      </trkpt>
      <trkpt lat="50.57504" lon="3.35089">
        <ele>36.807183</ele>
        <time>2021-05-13T18:11:27.822Z</time>
      </trkpt>
      <trkpt lat="50.57514" lon="3.35114">
        <ele>36.878981</ele>
        <time>2021-05-13T18:11:30.903Z</time>
      </trkpt>
      <trkpt lat="50.57543" lon="3.35312">
        <ele>37.317408</ele>
        <time>2021-05-13T18:11:53.394Z</time>
      </trkpt>
      <trkpt lat="50.57544" lon="3.35318">
        <ele>37.328298</ele>
        <time>2021-05-13T18:11:54.090Z</time>
      </trkpt>
      <trkpt lat="50.57559" lon="3.35409">
        <ele>37.492731</ele>
        <time>2021-05-13T18:12:03.487Z</time>
      </trkpt>
      <trkpt lat="50.57577" lon="3.35518">
        <ele>37.587117</ele>
        <time>2021-05-13T18:12:14.177Z</time>
      </trkpt>
      <trkpt lat="50.57578" lon="3.35528">
        <ele>37.525813</ele>
        <time>2021-05-13T18:12:15.027Z</time>
      </trkpt>
      <trkpt lat="50.5758" lon="3.35542">
        <ele>37.442969</ele>
        <time>2021-05-13T18:12:16.494Z</time>
      </trkpt>
      <trkpt lat="50.57594" lon="3.35624">
        <ele>36.956683</ele>
        <time>2021-05-13T18:12:24.307Z</time>
      </trkpt>
      <trkpt lat="50.57594" lon="3.35624">
        <ele>36.956683</ele>
        <time>2021-05-13T18:12:24.308Z</time>
      </trkpt>
      <trkpt lat="50.57615" lon="3.35723">
        <ele>36.358369</ele>
        <time>2021-05-13T18:12:32.007Z</time>
      </trkpt>
      <trkpt lat="50.57637" lon="3.35824">
        <ele>35.508171</ele>
        <time>2021-05-13T18:12:39.580Z</time>
      </trkpt>
      <trkpt lat="50.57644" lon="3.35844">
        <ele>35.265917</ele>
        <time>2021-05-13T18:12:41.382Z</time>
      </trkpt>
      <trkpt lat="50.5765" lon="3.35849">
        <ele>35.148451</ele>
        <time>2021-05-13T18:12:42.064Z</time>
      </trkpt>
      <trkpt lat="50.57661" lon="3.35855">
        <ele>34.954706</ele>
        <time>2021-05-13T18:12:43.497Z</time>
      </trkpt>
      <trkpt lat="50.57714" lon="3.35851">
        <ele>34.090091</ele>
        <time>2021-05-13T18:12:49.537Z</time>
      </trkpt>
      <trkpt lat="50.57724" lon="3.35855">
        <ele>33.908233</ele>
        <time>2021-05-13T18:12:50.658Z</time>
      </trkpt>
      <trkpt lat="50.57784" lon="3.35933">
        <ele>32.865609</ele>
        <time>2021-05-13T18:12:59.439Z</time>
      </trkpt>
      <trkpt lat="50.57789" lon="3.35955">
        <ele>32.744455</ele>
        <time>2021-05-13T18:13:01.321Z</time>
      </trkpt>
      <trkpt lat="50.57794" lon="3.36079">
        <ele>32.127344</ele>
        <time>2021-05-13T18:13:11.309Z</time>
      </trkpt>
      <trkpt lat="50.57805" lon="3.36138">
        <ele>31.820951</ele>
        <time>2021-05-13T18:13:16.649Z</time>
      </trkpt>
      <trkpt lat="50.57832" lon="3.36173">
        <ele>31.619521</ele>
        <time>2021-05-13T18:13:21.616Z</time>
      </trkpt>
      <trkpt lat="50.57851" lon="3.36216">
        <ele>31.525158</ele>
        <time>2021-05-13T18:13:26.628Z</time>
      </trkpt>
      <trkpt lat="50.57928" lon="3.36437">
        <ele>31.033514</ele>
        <time>2021-05-13T18:13:48.602Z</time>
      </trkpt>
      <trkpt lat="50.57943" lon="3.36485">
        <ele>30.885589</ele>
        <time>2021-05-13T18:13:53.152Z</time>
      </trkpt>
      <trkpt lat="50.57949" lon="3.36503">
        <ele>30.829571</ele>
        <time>2021-05-13T18:13:54.771Z</time>
      </trkpt>
      <trkpt lat="50.5797" lon="3.36569">
        <ele>30.623381</ele>
        <time>2021-05-13T18:14:01.037Z</time>
      </trkpt>
      <trkpt lat="50.57979" lon="3.36591">
        <ele>30.552539</ele>
        <time>2021-05-13T18:14:03.231Z</time>
      </trkpt>
      <trkpt lat="50.58068" lon="3.36809">
        <ele>30.115202</ele>
        <time>2021-05-13T18:14:26.101Z</time>
      </trkpt>
      <trkpt lat="50.58091" lon="3.36843">
        <ele>30.048015</ele>
        <time>2021-05-13T18:14:30.959Z</time>
      </trkpt>
      <trkpt lat="50.58136" lon="3.36924">
        <ele>29.81624</ele>
        <time>2021-05-13T18:14:40.777Z</time>
      </trkpt>
      <trkpt lat="50.58139" lon="3.36931">
        <ele>29.794564</ele>
        <time>2021-05-13T18:14:41.421Z</time>
      </trkpt>
      <trkpt lat="50.5819" lon="3.37044">
        <ele>29.427305</ele>
        <time>2021-05-13T18:14:53.461Z</time>
      </trkpt>
      <trkpt lat="50.58206" lon="3.37097">
        <ele>29.271248</ele>
        <time>2021-05-13T18:14:58.247Z</time>
      </trkpt>
      <trkpt lat="50.58213" lon="3.37118">
        <ele>29.189799</ele>
        <time>2021-05-13T18:15:00.087Z</time>
      </trkpt>
      <trkpt lat="50.58268" lon="3.37241">
        <ele>28.573638</ele>
        <time>2021-05-13T18:15:12.383Z</time>
      </trkpt>
      <trkpt lat="50.58294" lon="3.37303">
        <ele>28.269739</ele>
        <time>2021-05-13T18:15:18.441Z</time>
      </trkpt>
      <trkpt lat="50.58315" lon="3.37352">
        <ele>28.055685</ele>
        <time>2021-05-13T18:15:23.460Z</time>
      </trkpt>
      <trkpt lat="50.58326" lon="3.37377">
        <ele>27.989143</ele>
        <time>2021-05-13T18:15:26.016Z</time>
      </trkpt>
      <trkpt lat="50.58326" lon="3.37377">
        <ele>27.989143</ele>
        <time>2021-05-13T18:15:26.017Z</time>
      </trkpt>
      <trkpt lat="50.58326" lon="3.37377">
        <ele>27.989143</ele>
        <time>2021-05-13T18:15:26.027Z</time>
      </trkpt>
      <trkpt lat="50.5833" lon="3.3739">
        <ele>27.958788</ele>
        <time>2021-05-13T18:15:27.177Z</time>
      </trkpt>
      <trkpt lat="50.58381" lon="3.37578">
        <ele>27.507504</ele>
        <time>2021-05-13T18:15:44.963Z</time>
      </trkpt>
      <trkpt lat="50.58403" lon="3.37641">
        <ele>27.451557</ele>
        <time>2021-05-13T18:15:51.522Z</time>
      </trkpt>
      <trkpt lat="50.58426" lon="3.37692">
        <ele>27.436118</ele>
        <time>2021-05-13T18:15:57.433Z</time>
      </trkpt>
      <trkpt lat="50.58519" lon="3.37832">
        <ele>27.348173</ele>
        <time>2021-05-13T18:16:16.771Z</time>
      </trkpt>
      <trkpt lat="50.58545" lon="3.37889">
        <ele>27.256149</ele>
        <time>2021-05-13T18:16:23.192Z</time>
      </trkpt>
      <trkpt lat="50.58581" lon="3.38078">
        <ele>26.971042</ele>
        <time>2021-05-13T18:16:40.646Z</time>
      </trkpt>
      <trkpt lat="50.58584" lon="3.38105">
        <ele>26.905002</ele>
        <time>2021-05-13T18:16:42.923Z</time>
      </trkpt>
      <trkpt lat="50.58586" lon="3.38134">
        <ele>26.834623</ele>
        <time>2021-05-13T18:16:45.402Z</time>
      </trkpt>
      <trkpt lat="50.58583" lon="3.38172">
        <ele>26.74271</ele>
        <time>2021-05-13T18:16:48.558Z</time>
      </trkpt>
      <trkpt lat="50.58584" lon="3.3822">
        <ele>26.626424</ele>
        <time>2021-05-13T18:16:52.667Z</time>
      </trkpt>
      <trkpt lat="50.58588" lon="3.38273">
        <ele>26.497478</ele>
        <time>2021-05-13T18:16:57.255Z</time>
      </trkpt>
      <trkpt lat="50.58589" lon="3.38281">
        <ele>26.476956</ele>
        <time>2021-05-13T18:16:57.924Z</time>
      </trkpt>
      <trkpt lat="50.58608" lon="3.38371">
        <ele>26.295946</ele>
        <time>2021-05-13T18:17:06.290Z</time>
      </trkpt>
      <trkpt lat="50.58611" lon="3.38386">
        <ele>26.280644</ele>
        <time>2021-05-13T18:17:07.611Z</time>
      </trkpt>
      <trkpt lat="50.58616" lon="3.38411">
        <ele>26.254431</ele>
        <time>2021-05-13T18:17:10.055Z</time>
      </trkpt>
      <trkpt lat="50.58672" lon="3.38678">
        <ele>25.886464</ele>
        <time>2021-05-13T18:17:35.928Z</time>
      </trkpt>
      <trkpt lat="50.58676" lon="3.38696">
        <ele>25.844831</ele>
        <time>2021-05-13T18:17:37.569Z</time>
      </trkpt>
      <trkpt lat="50.58686" lon="3.3874">
        <ele>25.742196</ele>
        <time>2021-05-13T18:17:41.681Z</time>
      </trkpt>
      <trkpt lat="50.58693" lon="3.3876">
        <ele>25.690727</ele>
        <time>2021-05-13T18:17:43.618Z</time>
      </trkpt>
      <trkpt lat="50.58696" lon="3.38771">
        <ele>25.665346</ele>
        <time>2021-05-13T18:17:44.618Z</time>
      </trkpt>
      <trkpt lat="50.58705" lon="3.38797">
        <ele>25.601364</ele>
        <time>2021-05-13T18:17:47.209Z</time>
      </trkpt>
      <trkpt lat="50.58706" lon="3.388">
        <ele>25.592419</ele>
        <time>2021-05-13T18:17:47.476Z</time>
      </trkpt>
      <trkpt lat="50.58827" lon="3.39089">
        <ele>24.805719</ele>
        <time>2021-05-13T18:18:16.940Z</time>
      </trkpt>
      <trkpt lat="50.58841" lon="3.39128">
        <ele>24.735225</ele>
        <time>2021-05-13T18:18:21.303Z</time>
      </trkpt>
      <trkpt lat="50.58865" lon="3.39224">
        <ele>24.601491</ele>
        <time>2021-05-13T18:18:31.105Z</time>
      </trkpt>
      <trkpt lat="50.58896" lon="3.39297">
        <ele>24.488831</ele>
        <time>2021-05-13T18:18:38.924Z</time>
      </trkpt>
      <trkpt lat="50.58904" lon="3.39309">
        <ele>24.466361</ele>
        <time>2021-05-13T18:18:40.699Z</time>
      </trkpt>
      <trkpt lat="50.58946" lon="3.39333">
        <ele>24.325296</ele>
        <time>2021-05-13T18:18:46.747Z</time>
      </trkpt>
      <trkpt lat="50.59078" lon="3.3945">
        <ele>23.568568</ele>
        <time>2021-05-13T18:19:06.289Z</time>
      </trkpt>
      <trkpt lat="50.59112" lon="3.39483">
        <ele>23.679015</ele>
        <time>2021-05-13T18:19:11.755Z</time>
      </trkpt>
      <trkpt lat="50.5919" lon="3.39556">
        <ele>24.201625</ele>
        <time>2021-05-13T18:19:26.914Z</time>
      </trkpt>
      <trkpt lat="50.59231" lon="3.39616">
        <ele>24.518672</ele>
        <time>2021-05-13T18:19:37.704Z</time>
      </trkpt>
      <trkpt lat="50.59241" lon="3.39639">
        <ele>24.722052</ele>
        <time>2021-05-13T18:19:41.574Z</time>
      </trkpt>
      <trkpt lat="50.59247" lon="3.39668">
        <ele>24.984577</ele>
        <time>2021-05-13T18:19:45.842Z</time>
      </trkpt>
      <trkpt lat="50.59252" lon="3.39702">
        <ele>25.281796</ele>
        <time>2021-05-13T18:19:50.493Z</time>
      </trkpt>
      <trkpt lat="50.59253" lon="3.39719">
        <ele>25.429974</ele>
        <time>2021-05-13T18:19:52.820Z</time>
      </trkpt>
      <trkpt lat="50.59256" lon="3.39777">
        <ele>25.930413</ele>
        <time>2021-05-13T18:20:00.484Z</time>
      </trkpt>
      <trkpt lat="50.59257" lon="3.39785">
        <ele>25.995838</ele>
        <time>2021-05-13T18:20:01.626Z</time>
      </trkpt>
      <trkpt lat="50.59258" lon="3.39912">
        <ele>26.947741</ele>
        <time>2021-05-13T18:20:17.803Z</time>
      </trkpt>
      <trkpt lat="50.5926" lon="3.39937">
        <ele>26.899524</ele>
        <time>2021-05-13T18:20:20.896Z</time>
      </trkpt>
      <trkpt lat="50.5927" lon="3.39976">
        <ele>26.821557</ele>
        <time>2021-05-13T18:20:25.612Z</time>
      </trkpt>
      <trkpt lat="50.59325" lon="3.40082">
        <ele>26.568679</ele>
        <time>2021-05-13T18:20:36.872Z</time>
      </trkpt>
      <trkpt lat="50.59315" lon="3.40087">
        <ele>26.536621</ele>
        <time>2021-05-13T18:20:38.152Z</time>
      </trkpt>
      <trkpt lat="50.59287" lon="3.40103">
        <ele>26.450996</ele>
        <time>2021-05-13T18:20:41.583Z</time>
      </trkpt>
      <trkpt lat="50.59273" lon="3.40111">
        <ele>26.283188</ele>
        <time>2021-05-13T18:20:43.393Z</time>
      </trkpt>
      <trkpt lat="50.59264" lon="3.40116">
        <ele>26.164882</ele>
        <time>2021-05-13T18:20:44.547Z</time>
      </trkpt>
      <trkpt lat="50.5925" lon="3.40124">
        <ele>25.987249</ele>
        <time>2021-05-13T18:20:46.258Z</time>
      </trkpt>
      <trkpt lat="50.59204" lon="3.40149">
        <ele>25.386799</ele>
        <time>2021-05-13T18:20:52.036Z</time>
      </trkpt>
      <trkpt lat="50.59219" lon="3.40224">
        <ele>24.770333</ele>
        <time>2021-05-13T18:21:00.415Z</time>
      </trkpt>
      <trkpt lat="50.59225" lon="3.4025">
        <ele>24.560726</ele>
        <time>2021-05-13T18:21:03.316Z</time>
      </trkpt>
      <trkpt lat="50.59233" lon="3.40288">
        <ele>24.252352</ele>
        <time>2021-05-13T18:21:07.579Z</time>
      </trkpt>
      <trkpt lat="50.5925" lon="3.40357">
        <ele>24.147004</ele>
        <time>2021-05-13T18:21:16.189Z</time>
      </trkpt>
      <trkpt lat="50.59252" lon="3.40368">
        <ele>24.130528</ele>
        <time>2021-05-13T18:21:17.542Z</time>
      </trkpt>
      <trkpt lat="50.5926" lon="3.40399">
        <ele>24.082655</ele>
        <time>2021-05-13T18:21:21.922Z</time>
      </trkpt>
      <trkpt lat="50.59331" lon="3.40524">
        <ele>23.836907</ele>
        <time>2021-05-13T18:21:44.027Z</time>
      </trkpt>
      <trkpt lat="50.59374" lon="3.40623">
        <ele>23.487865</ele>
        <time>2021-05-13T18:21:58.906Z</time>
      </trkpt>
      <trkpt lat="50.59453" lon="3.40743">
        <ele>22.973472</ele>
        <time>2021-05-13T18:22:18.829Z</time>
      </trkpt>
      <trkpt lat="50.59491" lon="3.40787">
        <ele>22.713019</ele>
        <time>2021-05-13T18:22:26.952Z</time>
      </trkpt>
      <trkpt lat="50.59448" lon="3.4091">
        <ele>22.221133</ele>
        <time>2021-05-13T18:22:38.857Z</time>
      </trkpt>
      <trkpt lat="50.59434" lon="3.40952">
        <ele>22.057711</ele>
        <time>2021-05-13T18:22:42.929Z</time>
      </trkpt>
      <trkpt lat="50.59424" lon="3.40978">
        <ele>22.02623</ele>
        <time>2021-05-13T18:22:45.656Z</time>
      </trkpt>
      <trkpt lat="50.59421" lon="3.40985">
        <ele>22.025177</ele>
        <time>2021-05-13T18:22:46.365Z</time>
      </trkpt>
      <trkpt lat="50.59401" lon="3.4104">
        <ele>22.01688</ele>
        <time>2021-05-13T18:22:52.212Z</time>
      </trkpt>
      <trkpt lat="50.59375" lon="3.41113">
        <ele>22.006103</ele>
        <time>2021-05-13T18:23:00.043Z</time>
      </trkpt>
      <trkpt lat="50.59304" lon="3.41311">
        <ele>21.854662</ele>
        <time>2021-05-13T18:23:22.620Z</time>
      </trkpt>
      <trkpt lat="50.59238" lon="3.41483">
        <ele>21.628314</ele>
        <time>2021-05-13T18:23:39.713Z</time>
      </trkpt>
      <trkpt lat="50.59217" lon="3.41536">
        <ele>21.557532</ele>
        <time>2021-05-13T18:23:45.434Z</time>
      </trkpt>
      <trkpt lat="50.59206" lon="3.41579">
        <ele>21.504773</ele>
        <time>2021-05-13T18:23:49.703Z</time>
      </trkpt>
      <trkpt lat="50.59202" lon="3.41605">
        <ele>21.474192</ele>
        <time>2021-05-13T18:23:52.175Z</time>
      </trkpt>
      <trkpt lat="50.59201" lon="3.41607">
        <ele>21.471476</ele>
        <time>2021-05-13T18:23:52.414Z</time>
      </trkpt>
      <trkpt lat="50.59191" lon="3.41676">
        <ele>21.390336</ele>
        <time>2021-05-13T18:23:58.871Z</time>
      </trkpt>
      <trkpt lat="50.59187" lon="3.41702">
        <ele>21.360021</ele>
        <time>2021-05-13T18:24:01.255Z</time>
      </trkpt>
      <trkpt lat="50.59183" lon="3.41733">
        <ele>21.333857</ele>
        <time>2021-05-13T18:24:03.995Z</time>
      </trkpt>
      <trkpt lat="50.59168" lon="3.41813">
        <ele>21.27252</ele>
        <time>2021-05-13T18:24:11.581Z</time>
      </trkpt>
      <trkpt lat="50.59147" lon="3.41872">
        <ele>21.223713</ele>
        <time>2021-05-13T18:24:17.734Z</time>
      </trkpt>
      <trkpt lat="50.58988" lon="3.42176">
        <ele>21.282383</ele>
        <time>2021-05-13T18:24:54.373Z</time>
      </trkpt>
      <trkpt lat="50.58972" lon="3.42199">
        <ele>21.457301</ele>
        <time>2021-05-13T18:24:58.592Z</time>
      </trkpt>
      <trkpt lat="50.58951" lon="3.42216">
        <ele>21.648013</ele>
        <time>2021-05-13T18:25:02.872Z</time>
      </trkpt>
      <trkpt lat="50.58949" lon="3.42218">
        <ele>21.660807</ele>
        <time>2021-05-13T18:25:03.360Z</time>
      </trkpt>
      <trkpt lat="50.58939" lon="3.42226">
        <ele>21.752511</ele>
        <time>2021-05-13T18:25:05.628Z</time>
      </trkpt>
      <trkpt lat="50.58874" lon="3.42283">
        <ele>22.349451</ele>
        <time>2021-05-13T18:25:19.583Z</time>
      </trkpt>
      <trkpt lat="50.58859" lon="3.42302">
        <ele>22.503338</ele>
        <time>2021-05-13T18:25:22.808Z</time>
      </trkpt>
      <trkpt lat="50.588" lon="3.42427">
        <ele>22.825659</ele>
        <time>2021-05-13T18:25:40.914Z</time>
      </trkpt>
      <trkpt lat="50.58771" lon="3.42463">
        <ele>22.88032</ele>
        <time>2021-05-13T18:25:46.398Z</time>
      </trkpt>
      <trkpt lat="50.58762" lon="3.42474">
        <ele>22.896882</ele>
        <time>2021-05-13T18:25:48.077Z</time>
      </trkpt>
      <trkpt lat="50.58705" lon="3.42549">
        <ele>22.904616</ele>
        <time>2021-05-13T18:25:57.915Z</time>
      </trkpt>
      <trkpt lat="50.58682" lon="3.42584">
        <ele>22.72709</ele>
        <time>2021-05-13T18:26:02.035Z</time>
      </trkpt>
      <trkpt lat="50.58548" lon="3.42867">
        <ele>22.218191</ele>
        <time>2021-05-13T18:26:31.607Z</time>
      </trkpt>
      <trkpt lat="50.58532" lon="3.42893">
        <ele>22.275745</ele>
        <time>2021-05-13T18:26:34.976Z</time>
      </trkpt>
      <trkpt lat="50.58526" lon="3.42903">
        <ele>22.296952</ele>
        <time>2021-05-13T18:26:36.640Z</time>
      </trkpt>
      <trkpt lat="50.5852" lon="3.42912">
        <ele>22.318677</ele>
        <time>2021-05-13T18:26:38.293Z</time>
      </trkpt>
      <trkpt lat="50.58514" lon="3.42922">
        <ele>22.340578</ele>
        <time>2021-05-13T18:26:39.875Z</time>
      </trkpt>
      <trkpt lat="50.58505" lon="3.42937">
        <ele>22.373282</ele>
        <time>2021-05-13T18:26:42.417Z</time>
      </trkpt>
      <trkpt lat="50.58463" lon="3.42999">
        <ele>23.081457</ele>
        <time>2021-05-13T18:26:54.438Z</time>
      </trkpt>
      <trkpt lat="50.58428" lon="3.43047">
        <ele>24.048892</ele>
        <time>2021-05-13T18:27:04.975Z</time>
      </trkpt>
      <trkpt lat="50.584" lon="3.43087">
        <ele>24.844051</ele>
        <time>2021-05-13T18:27:14.752Z</time>
      </trkpt>
      <trkpt lat="50.58283" lon="3.43223">
        <ele>27.006049</ele>
        <time>2021-05-13T18:27:49.679Z</time>
      </trkpt>
      <trkpt lat="50.58237" lon="3.43268">
        <ele>27.540116</ele>
        <time>2021-05-13T18:27:58.764Z</time>
      </trkpt>
      <trkpt lat="50.58228" lon="3.43276">
        <ele>27.636905</ele>
        <time>2021-05-13T18:28:00.115Z</time>
      </trkpt>
      <trkpt lat="50.58196" lon="3.43306">
        <ele>27.965161</ele>
        <time>2021-05-13T18:28:05.311Z</time>
      </trkpt>
      <trkpt lat="50.58189" lon="3.43312">
        <ele>27.888314</ele>
        <time>2021-05-13T18:28:06.347Z</time>
      </trkpt>
      <trkpt lat="50.58139" lon="3.43358">
        <ele>27.351486</ele>
        <time>2021-05-13T18:28:13.312Z</time>
      </trkpt>
      <trkpt lat="50.58122" lon="3.43377">
        <ele>27.154801</ele>
        <time>2021-05-13T18:28:15.733Z</time>
      </trkpt>
      <trkpt lat="50.58071" lon="3.43441">
        <ele>26.544414</ele>
        <time>2021-05-13T18:28:23.433Z</time>
      </trkpt>
      <trkpt lat="50.58042" lon="3.43475">
        <ele>26.340835</ele>
        <time>2021-05-13T18:28:27.968Z</time>
      </trkpt>
      <trkpt lat="50.58034" lon="3.43484">
        <ele>26.370986</ele>
        <time>2021-05-13T18:28:29.313Z</time>
      </trkpt>
      <trkpt lat="50.58026" lon="3.43491">
        <ele>26.399298</ele>
        <time>2021-05-13T18:28:30.744Z</time>
      </trkpt>
      <trkpt lat="50.57998" lon="3.43511">
        <ele>26.493513</ele>
        <time>2021-05-13T18:28:35.052Z</time>
      </trkpt>
      <trkpt lat="50.57934" lon="3.43528">
        <ele>26.695175</ele>
        <time>2021-05-13T18:28:45.991Z</time>
      </trkpt>
      <trkpt lat="50.57906" lon="3.43536">
        <ele>26.781281</ele>
        <time>2021-05-13T18:28:51.099Z</time>
      </trkpt>
      <trkpt lat="50.57881" lon="3.43554">
        <ele>26.868971</ele>
        <time>2021-05-13T18:28:56.932Z</time>
      </trkpt>
      <trkpt lat="50.5781" lon="3.43654">
        <ele>27.32829</ele>
        <time>2021-05-13T18:29:14.357Z</time>
      </trkpt>
      <trkpt lat="50.57809" lon="3.43668">
        <ele>27.369823</ele>
        <time>2021-05-13T18:29:16.320Z</time>
      </trkpt>
      <trkpt lat="50.5781" lon="3.43681">
        <ele>27.410922</ele>
        <time>2021-05-13T18:29:17.561Z</time>
      </trkpt>
      <trkpt lat="50.57825" lon="3.43755">
        <ele>27.647666</ele>
        <time>2021-05-13T18:29:25.641Z</time>
      </trkpt>
      <trkpt lat="50.57824" lon="3.4377">
        <ele>27.694708</ele>
        <time>2021-05-13T18:29:27.036Z</time>
      </trkpt>
      <trkpt lat="50.57821" lon="3.43781">
        <ele>27.71645</ele>
        <time>2021-05-13T18:29:28.276Z</time>
      </trkpt>
      <trkpt lat="50.57788" lon="3.43818">
        <ele>27.02508</ele>
        <time>2021-05-13T18:29:33.068Z</time>
      </trkpt>
      <trkpt lat="50.57725" lon="3.43853">
        <ele>25.894657</ele>
        <time>2021-05-13T18:29:40.465Z</time>
      </trkpt>
      <trkpt lat="50.57725" lon="3.43853">
        <ele>25.894657</ele>
        <time>2021-05-13T18:29:40.467Z</time>
      </trkpt>
      <trkpt lat="50.5768" lon="3.43896">
        <ele>25.004735</ele>
        <time>2021-05-13T18:29:46.116Z</time>
      </trkpt>
      <trkpt lat="50.57669" lon="3.43905">
        <ele>24.785529</ele>
        <time>2021-05-13T18:29:47.546Z</time>
      </trkpt>
      <trkpt lat="50.57659" lon="3.43913">
        <ele>24.576246</ele>
        <time>2021-05-13T18:29:48.633Z</time>
      </trkpt>
      <trkpt lat="50.57543" lon="3.43966">
        <ele>21.934583</ele>
        <time>2021-05-13T18:30:01.578Z</time>
      </trkpt>
      <trkpt lat="50.5749" lon="3.43983">
        <ele>20.754192</ele>
        <time>2021-05-13T18:30:07.504Z</time>
      </trkpt>
      <trkpt lat="50.57433" lon="3.43999">
        <ele>19.918432</ele>
        <time>2021-05-13T18:30:14.189Z</time>
      </trkpt>
      <trkpt lat="50.57352" lon="3.44022">
        <ele>18.71804</ele>
        <time>2021-05-13T18:30:23.808Z</time>
      </trkpt>
      <trkpt lat="50.57338" lon="3.44026">
        <ele>18.505579</ele>
        <time>2021-05-13T18:30:25.511Z</time>
      </trkpt>
      <trkpt lat="50.5726" lon="3.44048">
        <ele>17.619418</ele>
        <time>2021-05-13T18:30:34.878Z</time>
      </trkpt>
      <trkpt lat="50.57198" lon="3.44068">
        <ele>16.997989</ele>
        <time>2021-05-13T18:30:42.554Z</time>
      </trkpt>
      <trkpt lat="50.57181" lon="3.44073">
        <ele>16.831743</ele>
        <time>2021-05-13T18:30:44.672Z</time>
      </trkpt>
      <trkpt lat="50.57069" lon="3.44105">
        <ele>16.300274</ele>
        <time>2021-05-13T18:30:59.889Z</time>
      </trkpt>
      <trkpt lat="50.57006" lon="3.44111">
        <ele>16.221047</ele>
        <time>2021-05-13T18:31:10.008Z</time>
      </trkpt>
      <trkpt lat="50.56984" lon="3.4411">
        <ele>16.19405</ele>
        <time>2021-05-13T18:31:13.483Z</time>
      </trkpt>
      <trkpt lat="50.56941" lon="3.44107">
        <ele>16.117885</ele>
        <time>2021-05-13T18:31:19.637Z</time>
      </trkpt>
      <trkpt lat="50.56897" lon="3.44104">
        <ele>15.999784</ele>
        <time>2021-05-13T18:31:25.648Z</time>
      </trkpt>
      <trkpt lat="50.56843" lon="3.441">
        <ele>15.855436</ele>
        <time>2021-05-13T18:31:32.826Z</time>
      </trkpt>
      <trkpt lat="50.56834" lon="3.44099">
        <ele>15.831573</ele>
        <time>2021-05-13T18:31:34.060Z</time>
      </trkpt>
      <trkpt lat="50.5682" lon="3.44115">
        <ele>15.785725</ele>
        <time>2021-05-13T18:31:36.215Z</time>
      </trkpt>
      <trkpt lat="50.56792" lon="3.44113">
        <ele>15.709842</ele>
        <time>2021-05-13T18:31:40.044Z</time>
      </trkpt>
      <trkpt lat="50.56778" lon="3.44115">
        <ele>15.699982</ele>
        <time>2021-05-13T18:31:41.953Z</time>
      </trkpt>
      <trkpt lat="50.56759" lon="3.44133">
        <ele>15.9398</ele>
        <time>2021-05-13T18:31:45.140Z</time>
      </trkpt>
      <trkpt lat="50.56751" lon="3.4415">
        <ele>16.085262</ele>
        <time>2021-05-13T18:31:47.620Z</time>
      </trkpt>
      <trkpt lat="50.56749" lon="3.44176">
        <ele>16.264346</ele>
        <time>2021-05-13T18:31:50.143Z</time>
      </trkpt>
      <trkpt lat="50.56741" lon="3.44282">
        <ele>16.993432</ele>
        <time>2021-05-13T18:32:02.606Z</time>
      </trkpt>
      <trkpt lat="50.56739" lon="3.44333">
        <ele>17.344002</ele>
        <time>2021-05-13T18:32:10.304Z</time>
      </trkpt>
      <trkpt lat="50.56741" lon="3.44365">
        <ele>17.558381</ele>
        <time>2021-05-13T18:32:15.014Z</time>
      </trkpt>
      <trkpt lat="50.56743" lon="3.44376">
        <ele>17.691521</ele>
        <time>2021-05-13T18:32:16.989Z</time>
      </trkpt>
      <trkpt lat="50.56753" lon="3.44464">
        <ele>19.441997</ele>
        <time>2021-05-13T18:32:30.694Z</time>
      </trkpt>
      <trkpt lat="50.56752" lon="3.44475">
        <ele>19.664862</ele>
        <time>2021-05-13T18:32:33.170Z</time>
      </trkpt>
      <trkpt lat="50.56751" lon="3.44484">
        <ele>19.851267</ele>
        <time>2021-05-13T18:32:35.335Z</time>
      </trkpt>
      <trkpt lat="50.5675" lon="3.44495">
        <ele>20.05444</ele>
        <time>2021-05-13T18:32:37.121Z</time>
      </trkpt>
      <trkpt lat="50.56752" lon="3.44504">
        <ele>20.254992</ele>
        <time>2021-05-13T18:32:38.615Z</time>
      </trkpt>
      <trkpt lat="50.56758" lon="3.4453">
        <ele>20.796137</ele>
        <time>2021-05-13T18:32:43.564Z</time>
      </trkpt>
      <trkpt lat="50.56765" lon="3.44531">
        <ele>21.019928</ele>
        <time>2021-05-13T18:32:46.058Z</time>
      </trkpt>
      <trkpt lat="50.56769" lon="3.44538">
        <ele>21.202556</ele>
        <time>2021-05-13T18:32:47.683Z</time>
      </trkpt>
      <trkpt lat="50.56808" lon="3.44591">
        <ele>22.811338</ele>
        <time>2021-05-13T18:33:01.482Z</time>
      </trkpt>
      <trkpt lat="50.56822" lon="3.44607">
        <ele>23.365314</ele>
        <time>2021-05-13T18:33:06.931Z</time>
      </trkpt>
      <trkpt lat="50.56826" lon="3.44612">
        <ele>23.57377</ele>
        <time>2021-05-13T18:33:08.408Z</time>
      </trkpt>
      <trkpt lat="50.56834" lon="3.44621">
        <ele>23.936779</ele>
        <time>2021-05-13T18:33:10.663Z</time>
      </trkpt>
      <trkpt lat="50.56838" lon="3.44627">
        <ele>24.154282</ele>
        <time>2021-05-13T18:33:12.713Z</time>
      </trkpt>
      <trkpt lat="50.56839" lon="3.44628">
        <ele>24.201771</ele>
        <time>2021-05-13T18:33:13.197Z</time>
      </trkpt>
      <trkpt lat="50.56839" lon="3.44632">
        <ele>24.294355</ele>
        <time>2021-05-13T18:33:14.168Z</time>
      </trkpt>
      <trkpt lat="50.56839" lon="3.4464">
        <ele>24.481131</ele>
        <time>2021-05-13T18:33:16.086Z</time>
      </trkpt>
      <trkpt lat="50.56808" lon="3.44779">
        <ele>28.047515</ele>
        <time>2021-05-13T18:33:43.807Z</time>
      </trkpt>
      <trkpt lat="50.56806" lon="3.44794">
        <ele>28.425852</ele>
        <time>2021-05-13T18:33:47.291Z</time>
      </trkpt>
      <trkpt lat="50.568" lon="3.44821">
        <ele>29.121411</ele>
        <time>2021-05-13T18:33:52.866Z</time>
      </trkpt>
      <trkpt lat="50.56797" lon="3.44836">
        <ele>29.491149</ele>
        <time>2021-05-13T18:33:55.719Z</time>
      </trkpt>
      <trkpt lat="50.56777" lon="3.44929">
        <ele>31.677911</ele>
        <time>2021-05-13T18:34:14.663Z</time>
      </trkpt>
      <trkpt lat="50.56772" lon="3.44953">
        <ele>32.209357</ele>
        <time>2021-05-13T18:34:19.725Z</time>
      </trkpt>
      <trkpt lat="50.56772" lon="3.4497">
        <ele>32.588337</ele>
        <time>2021-05-13T18:34:22.998Z</time>
      </trkpt>
      <trkpt lat="50.56771" lon="3.44976">
        <ele>32.705769</ele>
        <time>2021-05-13T18:34:23.974Z</time>
      </trkpt>
      <trkpt lat="50.5677" lon="3.44998">
        <ele>33.197252</ele>
        <time>2021-05-13T18:34:28.345Z</time>
      </trkpt>
      <trkpt lat="50.56768" lon="3.45008">
        <ele>33.420924</ele>
        <time>2021-05-13T18:34:30.514Z</time>
      </trkpt>
      <trkpt lat="50.56753" lon="3.45073">
        <ele>34.889006</ele>
        <time>2021-05-13T18:34:43.022Z</time>
      </trkpt>
      <trkpt lat="50.56742" lon="3.45119">
        <ele>35.956055</ele>
        <time>2021-05-13T18:34:51.111Z</time>
      </trkpt>
      <trkpt lat="50.56736" lon="3.45141">
        <ele>36.267295</ele>
        <time>2021-05-13T18:34:54.871Z</time>
      </trkpt>
      <trkpt lat="50.56734" lon="3.4516">
        <ele>36.417669</ele>
        <time>2021-05-13T18:34:57.673Z</time>
      </trkpt>
      <trkpt lat="50.56726" lon="3.45246">
        <ele>37.08189</ele>
        <time>2021-05-13T18:35:08.135Z</time>
      </trkpt>
      <trkpt lat="50.56725" lon="3.45255">
        <ele>37.154865</ele>
        <time>2021-05-13T18:35:09.574Z</time>
      </trkpt>
      <trkpt lat="50.56721" lon="3.45288">
        <ele>37.413672</ele>
        <time>2021-05-13T18:35:13.441Z</time>
      </trkpt>
      <trkpt lat="50.56717" lon="3.45305">
        <ele>37.554382</ele>
        <time>2021-05-13T18:35:15.685Z</time>
      </trkpt>
      <trkpt lat="50.56692" lon="3.45358">
        <ele>38.060799</ele>
        <time>2021-05-13T18:35:23.421Z</time>
      </trkpt>
      <trkpt lat="50.56687" lon="3.45375">
        <ele>38.201055</ele>
        <time>2021-05-13T18:35:25.470Z</time>
      </trkpt>
      <trkpt lat="50.56678" lon="3.45402">
        <ele>38.348738</ele>
        <time>2021-05-13T18:35:28.634Z</time>
      </trkpt>
      <trkpt lat="50.56672" lon="3.45419">
        <ele>38.372664</ele>
        <time>2021-05-13T18:35:30.514Z</time>
      </trkpt>
      <trkpt lat="50.56666" lon="3.45446">
        <ele>38.410973</ele>
        <time>2021-05-13T18:35:33.267Z</time>
      </trkpt>
      <trkpt lat="50.56661" lon="3.45471">
        <ele>38.445333</ele>
        <time>2021-05-13T18:35:37.003Z</time>
      </trkpt>
      <trkpt lat="50.5666" lon="3.45477">
        <ele>38.453166</ele>
        <time>2021-05-13T18:35:37.836Z</time>
      </trkpt>
      <trkpt lat="50.56657" lon="3.45526">
        <ele>38.516367</ele>
        <time>2021-05-13T18:35:44.028Z</time>
      </trkpt>
      <trkpt lat="50.56654" lon="3.45624">
        <ele>38.644689</ele>
        <time>2021-05-13T18:35:56.530Z</time>
      </trkpt>
      <trkpt lat="50.56653" lon="3.45662">
        <ele>38.693358</ele>
        <time>2021-05-13T18:36:01.657Z</time>
      </trkpt>
      <trkpt lat="50.56652" lon="3.45698">
        <ele>38.836828</ele>
        <time>2021-05-13T18:36:06.692Z</time>
      </trkpt>
      <trkpt lat="50.56648" lon="3.45704">
        <ele>38.875027</ele>
        <time>2021-05-13T18:36:07.985Z</time>
      </trkpt>
      <trkpt lat="50.5663" lon="3.45745">
        <ele>39.088482</ele>
        <time>2021-05-13T18:36:15.123Z</time>
      </trkpt>
      <trkpt lat="50.5664" lon="3.45755">
        <ele>39.1691</ele>
        <time>2021-05-13T18:36:17.895Z</time>
      </trkpt>
      <trkpt lat="50.56638" lon="3.45759">
        <ele>39.188748</ele>
        <time>2021-05-13T18:36:18.577Z</time>
      </trkpt>
      <trkpt lat="50.5664" lon="3.45761">
        <ele>39.208241</ele>
        <time>2021-05-13T18:36:19.247Z</time>
      </trkpt>
      <trkpt lat="50.56646" lon="3.45768">
        <ele>39.257659</ele>
        <time>2021-05-13T18:36:20.895Z</time>
      </trkpt>
      <trkpt lat="50.56648" lon="3.45762">
        <ele>39.28601</ele>
        <time>2021-05-13T18:36:21.842Z</time>
      </trkpt>
      <trkpt lat="50.56657" lon="3.45755">
        <ele>39.351788</ele>
        <time>2021-05-13T18:36:24.084Z</time>
      </trkpt>
      <trkpt lat="50.56666" lon="3.45768">
        <ele>39.434233</ele>
        <time>2021-05-13T18:36:26.938Z</time>
      </trkpt>
      <trkpt lat="50.56663" lon="3.45781">
        <ele>39.49538</ele>
        <time>2021-05-13T18:36:29.018Z</time>
      </trkpt>
      <trkpt lat="50.56653" lon="3.45787">
        <ele>39.568038</ele>
        <time>2021-05-13T18:36:31.496Z</time>
      </trkpt>
      <trkpt lat="50.5665" lon="3.45791">
        <ele>39.594948</ele>
        <time>2021-05-13T18:36:32.445Z</time>
      </trkpt>
      <trkpt lat="50.56646" lon="3.45858">
        <ele>39.883269</ele>
        <time>2021-05-13T18:36:42.683Z</time>
      </trkpt>
      <trkpt lat="50.56642" lon="3.45932">
        <ele>40.170277</ele>
        <time>2021-05-13T18:36:53.736Z</time>
      </trkpt>
      <trkpt lat="50.56638" lon="3.46002">
        <ele>40.443088</ele>
        <time>2021-05-13T18:37:04.088Z</time>
      </trkpt>
      <trkpt lat="50.56638" lon="3.461">
        <ele>40.822293</ele>
        <time>2021-05-13T18:37:18.732Z</time>
      </trkpt>
      <trkpt lat="50.5666" lon="3.46104">
        <ele>40.957504</ele>
        <time>2021-05-13T18:37:23.540Z</time>
      </trkpt>
      <trkpt lat="50.56658" lon="3.46128">
        <ele>40.986479</ele>
        <time>2021-05-13T18:37:25.981Z</time>
      </trkpt>
      <trkpt lat="50.56658" lon="3.46212">
        <ele>40.835051</ele>
        <time>2021-05-13T18:37:33.444Z</time>
      </trkpt>
      <trkpt lat="50.56658" lon="3.46245">
        <ele>40.774869</ele>
        <time>2021-05-13T18:37:36.272Z</time>
      </trkpt>
      <trkpt lat="50.56659" lon="3.46263">
        <ele>40.742284</ele>
        <time>2021-05-13T18:37:37.793Z</time>
      </trkpt>
      <trkpt lat="50.56659" lon="3.46275">
        <ele>40.718988</ele>
        <time>2021-05-13T18:37:38.886Z</time>
      </trkpt>
      <trkpt lat="50.5666" lon="3.46305">
        <ele>40.665212</ele>
        <time>2021-05-13T18:37:41.326Z</time>
      </trkpt>
      <trkpt lat="50.56661" lon="3.46326">
        <ele>40.627473</ele>
        <time>2021-05-13T18:37:43.034Z</time>
      </trkpt>
      <trkpt lat="50.56664" lon="3.46351">
        <ele>40.580152</ele>
        <time>2021-05-13T18:37:45.151Z</time>
      </trkpt>
      <trkpt lat="50.56668" lon="3.46401">
        <ele>40.495248</ele>
        <time>2021-05-13T18:37:49.313Z</time>
      </trkpt>
      <trkpt lat="50.56671" lon="3.46437">
        <ele>40.540494</ele>
        <time>2021-05-13T18:37:52.775Z</time>
      </trkpt>
      <trkpt lat="50.56675" lon="3.46474">
        <ele>40.585739</ele>
        <time>2021-05-13T18:37:56.174Z</time>
      </trkpt>
      <trkpt lat="50.5668" lon="3.46522">
        <ele>40.644993</ele>
        <time>2021-05-13T18:38:00.676Z</time>
      </trkpt>
      <trkpt lat="50.56686" lon="3.46567">
        <ele>40.700792</ele>
        <time>2021-05-13T18:38:05.278Z</time>
      </trkpt>
      <trkpt lat="50.56689" lon="3.46595">
        <ele>40.735246</ele>
        <time>2021-05-13T18:38:08.198Z</time>
      </trkpt>
      <trkpt lat="50.56691" lon="3.4661">
        <ele>40.753543</ele>
        <time>2021-05-13T18:38:09.916Z</time>
      </trkpt>
      <trkpt lat="50.56694" lon="3.46624">
        <ele>40.770821</ele>
        <time>2021-05-13T18:38:11.358Z</time>
      </trkpt>
      <trkpt lat="50.56699" lon="3.46663">
        <ele>40.820248</ele>
        <time>2021-05-13T18:38:15.975Z</time>
      </trkpt>
      <trkpt lat="50.56713" lon="3.46753">
        <ele>41.245038</ele>
        <time>2021-05-13T18:38:26.535Z</time>
      </trkpt>
      <trkpt lat="50.56717" lon="3.46782">
        <ele>41.400854</ele>
        <time>2021-05-13T18:38:30.233Z</time>
      </trkpt>
      <trkpt lat="50.56742" lon="3.46947">
        <ele>42.286175</ele>
        <time>2021-05-13T18:38:50.087Z</time>
      </trkpt>
      <trkpt lat="50.56742" lon="3.47048">
        <ele>42.551523</ele>
        <time>2021-05-13T18:39:00.817Z</time>
      </trkpt>
      <trkpt lat="50.56732" lon="3.47191">
        <ele>42.910443</ele>
        <time>2021-05-13T18:39:15.285Z</time>
      </trkpt>
      <trkpt lat="50.56769" lon="3.47349">
        <ele>43.522138</ele>
        <time>2021-05-13T18:39:32.744Z</time>
      </trkpt>
      <trkpt lat="50.56774" lon="3.47365">
        <ele>43.593262</ele>
        <time>2021-05-13T18:39:34.687Z</time>
      </trkpt>
      <trkpt lat="50.56807" lon="3.47489">
        <ele>44.1351</ele>
        <time>2021-05-13T18:39:50.451Z</time>
      </trkpt>
      <trkpt lat="50.56812" lon="3.47507">
        <ele>44.239367</ele>
        <time>2021-05-13T18:39:52.696Z</time>
      </trkpt>
      <trkpt lat="50.56815" lon="3.47518">
        <ele>44.316417</ele>
        <time>2021-05-13T18:39:54.082Z</time>
      </trkpt>
      <trkpt lat="50.5682" lon="3.47528">
        <ele>44.394025</ele>
        <time>2021-05-13T18:39:55.899Z</time>
      </trkpt>
      <trkpt lat="50.56838" lon="3.47544">
        <ele>44.592047</ele>
        <time>2021-05-13T18:39:59.698Z</time>
      </trkpt>
      <trkpt lat="50.56882" lon="3.47565">
        <ele>45.029465</ele>
        <time>2021-05-13T18:40:08.381Z</time>
      </trkpt>
      <trkpt lat="50.569" lon="3.47571">
        <ele>45.206184</ele>
        <time>2021-05-13T18:40:12.069Z</time>
      </trkpt>
      <trkpt lat="50.56943" lon="3.476">
        <ele>45.649914</ele>
        <time>2021-05-13T18:40:20.696Z</time>
      </trkpt>
      <trkpt lat="50.56963" lon="3.47614">
        <ele>45.858026</ele>
        <time>2021-05-13T18:40:24.950Z</time>
      </trkpt>
      <trkpt lat="50.57008" lon="3.47669">
        <ele>46.067834</ele>
        <time>2021-05-13T18:40:34.639Z</time>
      </trkpt>
      <trkpt lat="50.57079" lon="3.47757">
        <ele>46.375324</ele>
        <time>2021-05-13T18:40:48.848Z</time>
      </trkpt>
      <trkpt lat="50.57106" lon="3.47799">
        <ele>46.507504</ele>
        <time>2021-05-13T18:40:54.560Z</time>
      </trkpt>
      <trkpt lat="50.57133" lon="3.47873">
        <ele>46.712019</ele>
        <time>2021-05-13T18:41:02.514Z</time>
      </trkpt>
      <trkpt lat="50.57171" lon="3.48065">
        <ele>47.229373</ele>
        <time>2021-05-13T18:41:23.997Z</time>
      </trkpt>
      <trkpt lat="50.57175" lon="3.4809">
        <ele>47.402858</ele>
        <time>2021-05-13T18:41:26.694Z</time>
      </trkpt>
      <trkpt lat="50.57179" lon="3.48099">
        <ele>47.482478</ele>
        <time>2021-05-13T18:41:28.361Z</time>
      </trkpt>
      <trkpt lat="50.57191" lon="3.48156">
        <ele>47.897449</ele>
        <time>2021-05-13T18:41:35.610Z</time>
      </trkpt>
      <trkpt lat="50.57235" lon="3.48362">
        <ele>49.234977</ele>
        <time>2021-05-13T18:42:03.367Z</time>
      </trkpt>
      <trkpt lat="50.5724" lon="3.48391">
        <ele>49.329191</ele>
        <time>2021-05-13T18:42:06.896Z</time>
      </trkpt>
      <trkpt lat="50.57246" lon="3.48417">
        <ele>49.415033</ele>
        <time>2021-05-13T18:42:09.867Z</time>
      </trkpt>
      <trkpt lat="50.57252" lon="3.48448">
        <ele>49.517337</ele>
        <time>2021-05-13T18:42:13.496Z</time>
      </trkpt>
      <trkpt lat="50.57263" lon="3.48501">
        <ele>49.693359</ele>
        <time>2021-05-13T18:42:19.311Z</time>
      </trkpt>
      <trkpt lat="50.57284" lon="3.48598">
        <ele>49.98521</ele>
        <time>2021-05-13T18:42:29.071Z</time>
      </trkpt>
      <trkpt lat="50.57308" lon="3.48672">
        <ele>49.744448</ele>
        <time>2021-05-13T18:42:36.231Z</time>
      </trkpt>
      <trkpt lat="50.57351" lon="3.48791">
        <ele>49.349564</ele>
        <time>2021-05-13T18:42:47.472Z</time>
      </trkpt>
      <trkpt lat="50.57355" lon="3.4881">
        <ele>49.292076</ele>
        <time>2021-05-13T18:42:49.156Z</time>
      </trkpt>
      <trkpt lat="50.57356" lon="3.48832">
        <ele>49.228326</ele>
        <time>2021-05-13T18:42:51.033Z</time>
      </trkpt>
      <trkpt lat="50.57371" lon="3.49041">
        <ele>48.659658</ele>
        <time>2021-05-13T18:43:09.157Z</time>
      </trkpt>
      <trkpt lat="50.57367" lon="3.4924">
        <ele>47.706963</ele>
        <time>2021-05-13T18:43:26.049Z</time>
      </trkpt>
      <trkpt lat="50.57353" lon="3.49349">
        <ele>46.97857</ele>
        <time>2021-05-13T18:43:34.528Z</time>
      </trkpt>
      <trkpt lat="50.57352" lon="3.49352">
        <ele>46.960574</ele>
        <time>2021-05-13T18:43:34.718Z</time>
      </trkpt>
      <trkpt lat="50.57345" lon="3.49402">
        <ele>46.625352</ele>
        <time>2021-05-13T18:43:38.567Z</time>
      </trkpt>
      <trkpt lat="50.57337" lon="3.49452">
        <ele>46.210232</ele>
        <time>2021-05-13T18:43:42.308Z</time>
      </trkpt>
      <trkpt lat="50.57327" lon="3.49498">
        <ele>45.798327</ele>
        <time>2021-05-13T18:43:45.875Z</time>
      </trkpt>
      <trkpt lat="50.57319" lon="3.49531">
        <ele>45.497603</ele>
        <time>2021-05-13T18:43:48.426Z</time>
      </trkpt>
      <trkpt lat="50.57284" lon="3.4967">
        <ele>44.242513</ele>
        <time>2021-05-13T18:43:59.506Z</time>
      </trkpt>
      <trkpt lat="50.57263" lon="3.49779">
        <ele>44.293072</ele>
        <time>2021-05-13T18:44:09.070Z</time>
      </trkpt>
      <trkpt lat="50.57228" lon="3.49855">
        <ele>44.382553</ele>
        <time>2021-05-13T18:44:18.795Z</time>
      </trkpt>
      <trkpt lat="50.57206" lon="3.49931">
        <ele>44.486173</ele>
        <time>2021-05-13T18:44:28.463Z</time>
      </trkpt>
      <trkpt lat="50.57196" lon="3.49999">
        <ele>45.208815</ele>
        <time>2021-05-13T18:44:37.540Z</time>
      </trkpt>
      <trkpt lat="50.57192" lon="3.50024">
        <ele>45.475409</ele>
        <time>2021-05-13T18:44:40.958Z</time>
      </trkpt>
      <trkpt lat="50.57182" lon="3.50145">
        <ele>46.735885</ele>
        <time>2021-05-13T18:44:57.979Z</time>
      </trkpt>
      <trkpt lat="50.57156" lon="3.5045">
        <ele>50.294031</ele>
        <time>2021-05-13T18:45:42.396Z</time>
      </trkpt>
      <trkpt lat="50.57148" lon="3.50513">
        <ele>50.971187</ele>
        <time>2021-05-13T18:45:51.083Z</time>
      </trkpt>
      <trkpt lat="50.57134" lon="3.50564">
        <ele>51.465492</ele>
        <time>2021-05-13T18:45:58.500Z</time>
      </trkpt>
      <trkpt lat="50.57119" lon="3.50602">
        <ele>51.85902</ele>
        <time>2021-05-13T18:46:04.378Z</time>
      </trkpt>
      <trkpt lat="50.57116" lon="3.50608">
        <ele>51.924597</ele>
        <time>2021-05-13T18:46:05.302Z</time>
      </trkpt>
      <trkpt lat="50.57108" lon="3.50627">
        <ele>52.133325</ele>
        <time>2021-05-13T18:46:08.515Z</time>
      </trkpt>
      <trkpt lat="50.57049" lon="3.50764">
        <ele>53.489852</ele>
        <time>2021-05-13T18:46:29.229Z</time>
      </trkpt>
      <trkpt lat="50.57018" lon="3.50841">
        <ele>54.048634</ele>
        <time>2021-05-13T18:46:40.022Z</time>
      </trkpt>
      <trkpt lat="50.57006" lon="3.50892">
        <ele>54.384791</ele>
        <time>2021-05-13T18:46:46.244Z</time>
      </trkpt>
      <trkpt lat="50.5693" lon="3.51074">
        <ele>55.965591</ele>
        <time>2021-05-13T18:47:11.782Z</time>
      </trkpt>
      <trkpt lat="50.56911" lon="3.51128">
        <ele>56.474718</ele>
        <time>2021-05-13T18:47:19.419Z</time>
      </trkpt>
      <trkpt lat="50.56841" lon="3.51469">
        <ele>60.304557</ele>
        <time>2021-05-13T18:48:09.968Z</time>
      </trkpt>
      <trkpt lat="50.56739" lon="3.51749">
        <ele>63.666255</ele>
        <time>2021-05-13T18:48:55.664Z</time>
      </trkpt>
      <trkpt lat="50.56716" lon="3.5185">
        <ele>63.466025</ele>
        <time>2021-05-13T18:49:07.219Z</time>
      </trkpt>
      <trkpt lat="50.56698" lon="3.5189">
        <ele>63.375913</ele>
        <time>2021-05-13T18:49:11.419Z</time>
      </trkpt>
      <trkpt lat="50.56657" lon="3.51941">
        <ele>63.223015</ele>
        <time>2021-05-13T18:49:17.771Z</time>
      </trkpt>
      <trkpt lat="50.5662" lon="3.51987">
        <ele>62.454039</ele>
        <time>2021-05-13T18:49:23.019Z</time>
      </trkpt>
      <trkpt lat="50.56475" lon="3.52163">
        <ele>57.602939</ele>
        <time>2021-05-13T18:49:41.906Z</time>
      </trkpt>
      <trkpt lat="50.56391" lon="3.52302">
        <ele>54.354477</ele>
        <time>2021-05-13T18:49:54.588Z</time>
      </trkpt>
      <trkpt lat="50.5638" lon="3.52322">
        <ele>53.915055</ele>
        <time>2021-05-13T18:49:56.296Z</time>
      </trkpt>
      <trkpt lat="50.56348" lon="3.52349">
        <ele>53.159548</ele>
        <time>2021-05-13T18:50:00.271Z</time>
      </trkpt>
      <trkpt lat="50.56327" lon="3.52359">
        <ele>52.778053</ele>
        <time>2021-05-13T18:50:02.699Z</time>
      </trkpt>
      <trkpt lat="50.56239" lon="3.52388">
        <ele>51.198914</ele>
        <time>2021-05-13T18:50:12.695Z</time>
      </trkpt>
      <trkpt lat="50.56199" lon="3.52401">
        <ele>50.476294</ele>
        <time>2021-05-13T18:50:17.635Z</time>
      </trkpt>
      <trkpt lat="50.56156" lon="3.52421">
        <ele>49.999773</ele>
        <time>2021-05-13T18:50:23.111Z</time>
      </trkpt>
      <trkpt lat="50.56116" lon="3.5246">
        <ele>49.527036</ele>
        <time>2021-05-13T18:50:28.751Z</time>
      </trkpt>
      <trkpt lat="50.55856" lon="3.5273">
        <ele>46.783617</ele>
        <time>2021-05-13T18:51:07.646Z</time>
      </trkpt>
      <trkpt lat="50.5581" lon="3.52787">
        <ele>46.374467</ele>
        <time>2021-05-13T18:51:15.119Z</time>
      </trkpt>
      <trkpt lat="50.55777" lon="3.52837">
        <ele>46.057682</ele>
        <time>2021-05-13T18:51:20.967Z</time>
      </trkpt>
      <trkpt lat="50.55743" lon="3.52884">
        <ele>45.783185</ele>
        <time>2021-05-13T18:51:26.905Z</time>
      </trkpt>
      <trkpt lat="50.55682" lon="3.52957">
        <ele>45.532148</ele>
        <time>2021-05-13T18:51:37.193Z</time>
      </trkpt>
      <trkpt lat="50.55639" lon="3.5301">
        <ele>45.351093</ele>
        <time>2021-05-13T18:51:44.847Z</time>
      </trkpt>
      <trkpt lat="50.55591" lon="3.53067">
        <ele>45.261512</ele>
        <time>2021-05-13T18:51:53.535Z</time>
      </trkpt>
      <trkpt lat="50.5552" lon="3.53134">
        <ele>45.385267</ele>
        <time>2021-05-13T18:52:06.047Z</time>
      </trkpt>
      <trkpt lat="50.55504" lon="3.53147">
        <ele>45.41186</ele>
        <time>2021-05-13T18:52:08.795Z</time>
      </trkpt>
      <trkpt lat="50.55494" lon="3.53155">
        <ele>45.429882</ele>
        <time>2021-05-13T18:52:10.612Z</time>
      </trkpt>
      <trkpt lat="50.5548" lon="3.53169">
        <ele>45.453774</ele>
        <time>2021-05-13T18:52:13.161Z</time>
      </trkpt>
      <trkpt lat="50.55475" lon="3.53174">
        <ele>45.463102</ele>
        <time>2021-05-13T18:52:14.174Z</time>
      </trkpt>
      <trkpt lat="50.55477" lon="3.53191">
        <ele>45.479166</ele>
        <time>2021-05-13T18:52:15.979Z</time>
      </trkpt>
      <trkpt lat="50.5545" lon="3.53366">
        <ele>45.986569</ele>
        <time>2021-05-13T18:52:35.571Z</time>
      </trkpt>
      <trkpt lat="50.55444" lon="3.53394">
        <ele>46.076119</ele>
        <time>2021-05-13T18:52:38.728Z</time>
      </trkpt>
      <trkpt lat="50.55435" lon="3.53459">
        <ele>46.275818</ele>
        <time>2021-05-13T18:52:45.808Z</time>
      </trkpt>
      <trkpt lat="50.55428" lon="3.53517">
        <ele>46.357021</ele>
        <time>2021-05-13T18:52:52.069Z</time>
      </trkpt>
      <trkpt lat="50.55428" lon="3.53519">
        <ele>46.357243</ele>
        <time>2021-05-13T18:52:52.275Z</time>
      </trkpt>
      <trkpt lat="50.55415" lon="3.5365">
        <ele>46.371119</ele>
        <time>2021-05-13T18:53:05.664Z</time>
      </trkpt>
      <trkpt lat="50.55407" lon="3.5372">
        <ele>46.378556</ele>
        <time>2021-05-13T18:53:11.907Z</time>
      </trkpt>
      <trkpt lat="50.55338" lon="3.5414">
        <ele>44.91964</ele>
        <time>2021-05-13T18:53:47.791Z</time>
      </trkpt>
      <trkpt lat="50.55256" lon="3.54646">
        <ele>43.192737</ele>
        <time>2021-05-13T18:54:31.383Z</time>
      </trkpt>
      <trkpt lat="50.55207" lon="3.54961">
        <ele>43.055319</ele>
        <time>2021-05-13T18:55:01.810Z</time>
      </trkpt>
      <trkpt lat="50.55191" lon="3.55031">
        <ele>43.13807</ele>
        <time>2021-05-13T18:55:09.380Z</time>
      </trkpt>
      <trkpt lat="50.55157" lon="3.55116">
        <ele>43.249659</ele>
        <time>2021-05-13T18:55:19.592Z</time>
      </trkpt>
      <trkpt lat="50.55145" lon="3.55144">
        <ele>43.295836</ele>
        <time>2021-05-13T18:55:22.917Z</time>
      </trkpt>
      <trkpt lat="50.55097" lon="3.55077">
        <ele>43.437262</ele>
        <time>2021-05-13T18:55:36.255Z</time>
      </trkpt>
      <trkpt lat="50.55079" lon="3.55052">
        <ele>43.49108</ele>
        <time>2021-05-13T18:55:41.586Z</time>
      </trkpt>
      <trkpt lat="50.55097" lon="3.55077">
        <ele>43.544898</ele>
        <time>2021-05-13T18:55:47.186Z</time>
      </trkpt>
      <trkpt lat="50.55145" lon="3.55144">
        <ele>43.571932</ele>
        <time>2021-05-13T18:56:00.680Z</time>
      </trkpt>
      <trkpt lat="50.55108" lon="3.55228">
        <ele>43.229367</ele>
        <time>2021-05-13T18:56:09.412Z</time>
      </trkpt>
      <trkpt lat="50.55094" lon="3.55255">
        <ele>43.115066</ele>
        <time>2021-05-13T18:56:12.333Z</time>
      </trkpt>
      <trkpt lat="50.55001" lon="3.55282">
        <ele>42.553382</ele>
        <time>2021-05-13T18:56:24.185Z</time>
      </trkpt>
      <trkpt lat="50.54849" lon="3.5518">
        <ele>41.100666</ele>
        <time>2021-05-13T18:56:44.136Z</time>
      </trkpt>
      <trkpt lat="50.54693" lon="3.55074">
        <ele>41.299116</ele>
        <time>2021-05-13T18:57:10.389Z</time>
      </trkpt>
      <trkpt lat="50.54689" lon="3.55072">
        <ele>41.303825</ele>
        <time>2021-05-13T18:57:11.111Z</time>
      </trkpt>
      <trkpt lat="50.54665" lon="3.55052">
        <ele>41.580079</ele>
        <time>2021-05-13T18:57:16.264Z</time>
      </trkpt>
      <trkpt lat="50.54639" lon="3.55029">
        <ele>41.91019</ele>
        <time>2021-05-13T18:57:21.911Z</time>
      </trkpt>
      <trkpt lat="50.54611" lon="3.54994">
        <ele>42.310093</ele>
        <time>2021-05-13T18:57:29.074Z</time>
      </trkpt>
      <trkpt lat="50.54548" lon="3.54956">
        <ele>43.059839</ele>
        <time>2021-05-13T18:57:43.058Z</time>
      </trkpt>
      <trkpt lat="50.54492" lon="3.54932">
        <ele>43.617708</ele>
        <time>2021-05-13T18:57:54.444Z</time>
      </trkpt>
      <trkpt lat="50.54428" lon="3.54902">
        <ele>44.202462</ele>
        <time>2021-05-13T18:58:06.683Z</time>
      </trkpt>
      <trkpt lat="50.54348" lon="3.54866">
        <ele>44.905604</ele>
        <time>2021-05-13T18:58:21.121Z</time>
      </trkpt>
      <trkpt lat="50.54316" lon="3.54851">
        <ele>45.126815</ele>
        <time>2021-05-13T18:58:26.792Z</time>
      </trkpt>
      <trkpt lat="50.54293" lon="3.54836">
        <ele>45.296341</ele>
        <time>2021-05-13T18:58:31.372Z</time>
      </trkpt>
      <trkpt lat="50.5425" lon="3.54789">
        <ele>45.642694</ele>
        <time>2021-05-13T18:58:40.058Z</time>
      </trkpt>
      <trkpt lat="50.54189" lon="3.54724">
        <ele>46.134944</ele>
        <time>2021-05-13T18:58:53.096Z</time>
      </trkpt>
      <trkpt lat="50.54183" lon="3.54702">
        <ele>46.252423</ele>
        <time>2021-05-13T18:58:56.962Z</time>
      </trkpt>
      <trkpt lat="50.54148" lon="3.54582">
        <ele>46.894041</ele>
        <time>2021-05-13T18:59:16.788Z</time>
      </trkpt>
      <trkpt lat="50.54141" lon="3.5453">
        <ele>47.153522</ele>
        <time>2021-05-13T18:59:24.716Z</time>
      </trkpt>
      <trkpt lat="50.54138" lon="3.54508">
        <ele>47.266414</ele>
        <time>2021-05-13T18:59:28.207Z</time>
      </trkpt>
      <trkpt lat="50.54133" lon="3.54488">
        <ele>47.370116</ele>
        <time>2021-05-13T18:59:31.335Z</time>
      </trkpt>
      <trkpt lat="50.54113" lon="3.54448">
        <ele>47.4019</ele>
        <time>2021-05-13T18:59:38.591Z</time>
      </trkpt>
      <trkpt lat="50.54093" lon="3.54426">
        <ele>47.360867</ele>
        <time>2021-05-13T18:59:44.051Z</time>
      </trkpt>
      <trkpt lat="50.54011" lon="3.54358">
        <ele>47.2075</ele>
        <time>2021-05-13T19:00:02.210Z</time>
      </trkpt>
      <trkpt lat="50.54011" lon="3.54358">
        <ele>47.2075</ele>
        <time>2021-05-13T19:00:02.262Z</time>
      </trkpt>
      <trkpt lat="50.53985" lon="3.54339">
        <ele>47.159931</ele>
        <time>2021-05-13T19:00:07.252Z</time>
      </trkpt>
      <trkpt lat="50.53958" lon="3.54335">
        <ele>46.885251</ele>
        <time>2021-05-13T19:00:11.969Z</time>
      </trkpt>
      <trkpt lat="50.53932" lon="3.54346">
        <ele>46.470138</ele>
        <time>2021-05-13T19:00:16.524Z</time>
      </trkpt>
      <trkpt lat="50.53806" lon="3.54383">
        <ele>44.477486</ele>
        <time>2021-05-13T19:00:37.239Z</time>
      </trkpt>
      <trkpt lat="50.53702" lon="3.54414">
        <ele>42.864877</ele>
        <time>2021-05-13T19:00:54.079Z</time>
      </trkpt>
      <trkpt lat="50.53683" lon="3.5442">
        <ele>42.569363</ele>
        <time>2021-05-13T19:00:57.256Z</time>
      </trkpt>
      <trkpt lat="50.53548" lon="3.54558">
        <ele>40.618405</ele>
        <time>2021-05-13T19:01:24.964Z</time>
      </trkpt>
      <trkpt lat="50.53484" lon="3.5462">
        <ele>39.864753</ele>
        <time>2021-05-13T19:01:38.201Z</time>
      </trkpt>
      <trkpt lat="50.53432" lon="3.54692">
        <ele>39.303757</ele>
        <time>2021-05-13T19:01:50.298Z</time>
      </trkpt>
      <trkpt lat="50.53327" lon="3.54795">
        <ele>38.339266</ele>
        <time>2021-05-13T19:02:12.452Z</time>
      </trkpt>
      <trkpt lat="50.53323" lon="3.54801">
        <ele>38.302321</ele>
        <time>2021-05-13T19:02:13.422Z</time>
      </trkpt>
      <trkpt lat="50.53323" lon="3.54801">
        <ele>38.302321</ele>
        <time>2021-05-13T19:02:13.423Z</time>
      </trkpt>
      <trkpt lat="50.53301" lon="3.54774">
        <ele>38.132233</ele>
        <time>2021-05-13T19:02:17.209Z</time>
      </trkpt>
      <trkpt lat="50.53279" lon="3.54746">
        <ele>37.954112</ele>
        <time>2021-05-13T19:02:21.024Z</time>
      </trkpt>
      <trkpt lat="50.53206" lon="3.54654">
        <ele>37.376538</ele>
        <time>2021-05-13T19:02:32.995Z</time>
      </trkpt>
      <trkpt lat="50.53168" lon="3.54621">
        <ele>37.052429</ele>
        <time>2021-05-13T19:02:38.870Z</time>
      </trkpt>
      <trkpt lat="50.53153" lon="3.54615">
        <ele>36.925224</ele>
        <time>2021-05-13T19:02:40.930Z</time>
      </trkpt>
      <trkpt lat="50.53141" lon="3.54615">
        <ele>36.821018</ele>
        <time>2021-05-13T19:02:42.444Z</time>
      </trkpt>
      <trkpt lat="50.52867" lon="3.54625">
        <ele>34.342028</ele>
        <time>2021-05-13T19:03:16.022Z</time>
      </trkpt>
      <trkpt lat="50.52843" lon="3.54632">
        <ele>34.104711</ele>
        <time>2021-05-13T19:03:19.052Z</time>
      </trkpt>
      <trkpt lat="50.5282" lon="3.54642">
        <ele>33.877579</ele>
        <time>2021-05-13T19:03:22.016Z</time>
      </trkpt>
      <trkpt lat="50.52656" lon="3.54715">
        <ele>32.229083</ele>
        <time>2021-05-13T19:03:43.099Z</time>
      </trkpt>
      <trkpt lat="50.52627" lon="3.5473">
        <ele>31.754223</ele>
        <time>2021-05-13T19:03:46.874Z</time>
      </trkpt>
      <trkpt lat="50.52558" lon="3.54762">
        <ele>30.659301</ele>
        <time>2021-05-13T19:03:55.143Z</time>
      </trkpt>
      <trkpt lat="50.52511" lon="3.54785">
        <ele>29.903579</ele>
        <time>2021-05-13T19:04:00.632Z</time>
      </trkpt>
      <trkpt lat="50.52472" lon="3.54812">
        <ele>29.186422</ele>
        <time>2021-05-13T19:04:05.336Z</time>
      </trkpt>
      <trkpt lat="50.52449" lon="3.54833">
        <ele>28.694453</ele>
        <time>2021-05-13T19:04:08.242Z</time>
      </trkpt>
      <trkpt lat="50.52381" lon="3.54892">
        <ele>27.267876</ele>
        <time>2021-05-13T19:04:16.891Z</time>
      </trkpt>
      <trkpt lat="50.52356" lon="3.54915">
        <ele>26.747916</ele>
        <time>2021-05-13T19:04:20.052Z</time>
      </trkpt>
      <trkpt lat="50.52327" lon="3.54942">
        <ele>26.176842</ele>
        <time>2021-05-13T19:04:23.859Z</time>
      </trkpt>
      <trkpt lat="50.52203" lon="3.55055">
        <ele>24.645508</ele>
        <time>2021-05-13T19:04:41.114Z</time>
      </trkpt>
      <trkpt lat="50.52182" lon="3.55054">
        <ele>24.413944</ele>
        <time>2021-05-13T19:04:43.855Z</time>
      </trkpt>
      <trkpt lat="50.5204" lon="3.54909">
        <ele>23.574087</ele>
        <time>2021-05-13T19:05:06.556Z</time>
      </trkpt>
      <trkpt lat="50.51991" lon="3.54901">
        <ele>23.379504</ele>
        <time>2021-05-13T19:05:13.435Z</time>
      </trkpt>
      <trkpt lat="50.5198" lon="3.54901">
        <ele>23.342045</ele>
        <time>2021-05-13T19:05:14.967Z</time>
      </trkpt>
      <trkpt lat="50.51967" lon="3.54896">
        <ele>23.292622</ele>
        <time>2021-05-13T19:05:17.579Z</time>
      </trkpt>
      <trkpt lat="50.51854" lon="3.54801">
        <ele>22.842615</ele>
        <time>2021-05-13T19:05:41.835Z</time>
      </trkpt>
      <trkpt lat="50.51774" lon="3.54691">
        <ele>22.330547</ele>
        <time>2021-05-13T19:06:01.528Z</time>
      </trkpt>
      <trkpt lat="50.51757" lon="3.54662">
        <ele>22.209263</ele>
        <time>2021-05-13T19:06:06.217Z</time>
      </trkpt>
      <trkpt lat="50.51742" lon="3.54636">
        <ele>22.103813</ele>
        <time>2021-05-13T19:06:10.259Z</time>
      </trkpt>
      <trkpt lat="50.5169" lon="3.54538">
        <ele>21.870543</ele>
        <time>2021-05-13T19:06:25.470Z</time>
      </trkpt>
      <trkpt lat="50.51634" lon="3.54361">
        <ele>21.624396</ele>
        <time>2021-05-13T19:06:50.493Z</time>
      </trkpt>
      <trkpt lat="50.51631" lon="3.54334">
        <ele>21.650679</ele>
        <time>2021-05-13T19:06:54.054Z</time>
      </trkpt>
      <trkpt lat="50.51599" lon="3.54347">
        <ele>21.700814</ele>
        <time>2021-05-13T19:07:00.711Z</time>
      </trkpt>
      <trkpt lat="50.51537" lon="3.54369">
        <ele>21.797368</ele>
        <time>2021-05-13T19:07:13.635Z</time>
      </trkpt>
      <trkpt lat="50.51471" lon="3.54371">
        <ele>21.920026</ele>
        <time>2021-05-13T19:07:28.307Z</time>
      </trkpt>
      <trkpt lat="50.51468" lon="3.54371">
        <ele>21.93824</ele>
        <time>2021-05-13T19:07:28.724Z</time>
      </trkpt>
      <trkpt lat="50.51464" lon="3.54371">
        <ele>21.965519</ele>
        <time>2021-05-13T19:07:29.603Z</time>
      </trkpt>
      <trkpt lat="50.51449" lon="3.54382">
        <ele>22.077771</ele>
        <time>2021-05-13T19:07:33.419Z</time>
      </trkpt>
      <trkpt lat="50.51438" lon="3.544">
        <ele>22.192248</ele>
        <time>2021-05-13T19:07:36.832Z</time>
      </trkpt>
      <trkpt lat="50.5142" lon="3.54441">
        <ele>22.415001</ele>
        <time>2021-05-13T19:07:44.184Z</time>
      </trkpt>
      <trkpt lat="50.51404" lon="3.5445">
        <ele>22.533569</ele>
        <time>2021-05-13T19:07:48.035Z</time>
      </trkpt>
      <trkpt lat="50.51393" lon="3.54446">
        <ele>22.611666</ele>
        <time>2021-05-13T19:07:50.502Z</time>
      </trkpt>
      <trkpt lat="50.51384" lon="3.54441">
        <ele>22.680913</ele>
        <time>2021-05-13T19:07:52.723Z</time>
      </trkpt>
      <trkpt lat="50.51377" lon="3.54437">
        <ele>22.733972</ele>
        <time>2021-05-13T19:07:54.301Z</time>
      </trkpt>
      <trkpt lat="50.5137" lon="3.54441">
        <ele>22.782595</ele>
        <time>2021-05-13T19:07:56.191Z</time>
      </trkpt>
      <trkpt lat="50.51343" lon="3.54467">
        <ele>23.008055</ele>
        <time>2021-05-13T19:08:03.567Z</time>
      </trkpt>
      <trkpt lat="50.51284" lon="3.54554">
        <ele>24.146234</ele>
        <time>2021-05-13T19:08:23.897Z</time>
      </trkpt>
      <trkpt lat="50.51201" lon="3.54686">
        <ele>26.111758</ele>
        <time>2021-05-13T19:08:56.889Z</time>
      </trkpt>
      <trkpt lat="50.51198" lon="3.54691">
        <ele>26.179294</ele>
        <time>2021-05-13T19:08:58.010Z</time>
      </trkpt>
      <trkpt lat="50.51163" lon="3.54738">
        <ele>26.960211</ele>
        <time>2021-05-13T19:09:11.245Z</time>
      </trkpt>
      <trkpt lat="50.51109" lon="3.548">
        <ele>28.081021</ele>
        <time>2021-05-13T19:09:29.849Z</time>
      </trkpt>
      <trkpt lat="50.51067" lon="3.54921">
        <ele>29.168441</ele>
        <time>2021-05-13T19:09:52.362Z</time>
      </trkpt>
      <trkpt lat="50.51033" lon="3.54967">
        <ele>29.21599</ele>
        <time>2021-05-13T19:10:02.252Z</time>
      </trkpt>
      <trkpt lat="50.50976" lon="3.55015">
        <ele>29.283494</ele>
        <time>2021-05-13T19:10:14.929Z</time>
      </trkpt>
      <trkpt lat="50.50923" lon="3.55037">
        <ele>29.262616</ele>
        <time>2021-05-13T19:10:25.034Z</time>
      </trkpt>
      <trkpt lat="50.50854" lon="3.55023">
        <ele>28.695125</ele>
        <time>2021-05-13T19:10:37.421Z</time>
      </trkpt>
      <trkpt lat="50.50846" lon="3.54977">
        <ele>28.445655</ele>
        <time>2021-05-13T19:10:41.250Z</time>
      </trkpt>
      <trkpt lat="50.50812" lon="3.54773">
        <ele>27.362447</ele>
        <time>2021-05-13T19:10:57.920Z</time>
      </trkpt>
      <trkpt lat="50.50809" lon="3.54738">
        <ele>27.182103</ele>
        <time>2021-05-13T19:11:00.736Z</time>
      </trkpt>
      <trkpt lat="50.50775" lon="3.54743">
        <ele>26.905067</ele>
        <time>2021-05-13T19:11:06.890Z</time>
      </trkpt>
      <trkpt lat="50.50756" lon="3.54746">
        <ele>26.757596</ele>
        <time>2021-05-13T19:11:10.184Z</time>
      </trkpt>
      <trkpt lat="50.50652" lon="3.54763">
        <ele>26.244407</ele>
        <time>2021-05-13T19:11:29.228Z</time>
      </trkpt>
      <trkpt lat="50.50611" lon="3.54773">
        <ele>26.126982</ele>
        <time>2021-05-13T19:11:36.922Z</time>
      </trkpt>
      <trkpt lat="50.50529" lon="3.54789">
        <ele>25.942771</ele>
        <time>2021-05-13T19:11:53.563Z</time>
      </trkpt>
      <trkpt lat="50.50425" lon="3.54758">
        <ele>26.408609</ele>
        <time>2021-05-13T19:12:17.184Z</time>
      </trkpt>
      <trkpt lat="50.50321" lon="3.54786">
        <ele>26.599405</ele>
        <time>2021-05-13T19:12:40.882Z</time>
      </trkpt>
      <trkpt lat="50.50302" lon="3.54793">
        <ele>26.549463</ele>
        <time>2021-05-13T19:12:45.151Z</time>
      </trkpt>
      <trkpt lat="50.50297" lon="3.54806">
        <ele>26.523787</ele>
        <time>2021-05-13T19:12:46.630Z</time>
      </trkpt>
      <trkpt lat="50.50278" lon="3.54825">
        <ele>26.465316</ele>
        <time>2021-05-13T19:12:50.189Z</time>
      </trkpt>
      <trkpt lat="50.50262" lon="3.5483">
        <ele>26.424886</ele>
        <time>2021-05-13T19:12:52.494Z</time>
      </trkpt>
      <trkpt lat="50.50089" lon="3.54839">
        <ele>24.677559</ele>
        <time>2021-05-13T19:13:13.526Z</time>
      </trkpt>
      <trkpt lat="50.50079" lon="3.54839">
        <ele>24.519726</ele>
        <time>2021-05-13T19:13:14.614Z</time>
      </trkpt>
      <trkpt lat="50.50066" lon="3.54839">
        <ele>24.332487</ele>
        <time>2021-05-13T19:13:15.974Z</time>
      </trkpt>
      <trkpt lat="50.50063" lon="3.54838">
        <ele>24.278122</ele>
        <time>2021-05-13T19:13:16.377Z</time>
      </trkpt>
      <trkpt lat="50.50054" lon="3.54837">
        <ele>24.146107</ele>
        <time>2021-05-13T19:13:17.300Z</time>
      </trkpt>
      <trkpt lat="50.5001" lon="3.54829">
        <ele>23.450838</ele>
        <time>2021-05-13T19:13:22.119Z</time>
      </trkpt>
      <trkpt lat="50.49999" lon="3.54826">
        <ele>23.24381</ele>
        <time>2021-05-13T19:13:23.329Z</time>
      </trkpt>
      <trkpt lat="50.49987" lon="3.54823">
        <ele>23.022357</ele>
        <time>2021-05-13T19:13:24.591Z</time>
      </trkpt>
      <trkpt lat="50.49943" lon="3.54814">
        <ele>22.169216</ele>
        <time>2021-05-13T19:13:29.390Z</time>
      </trkpt>
      <trkpt lat="50.49937" lon="3.54813">
        <ele>22.053616</ele>
        <time>2021-05-13T19:13:30.024Z</time>
      </trkpt>
      <trkpt lat="50.49914" lon="3.54813">
        <ele>21.627971</ele>
        <time>2021-05-13T19:13:32.513Z</time>
      </trkpt>
      <trkpt lat="50.49907" lon="3.54814">
        <ele>21.486154</ele>
        <time>2021-05-13T19:13:33.300Z</time>
      </trkpt>
      <trkpt lat="50.49879" lon="3.54829">
        <ele>20.936134</ele>
        <time>2021-05-13T19:13:36.625Z</time>
      </trkpt>
      <trkpt lat="50.49871" lon="3.54834">
        <ele>20.760073</ele>
        <time>2021-05-13T19:13:37.629Z</time>
      </trkpt>
      <trkpt lat="50.49864" lon="3.54838">
        <ele>20.635523</ele>
        <time>2021-05-13T19:13:38.407Z</time>
      </trkpt>
      <trkpt lat="50.49851" lon="3.54847">
        <ele>20.361313</ele>
        <time>2021-05-13T19:13:40.084Z</time>
      </trkpt>
      <trkpt lat="50.49797" lon="3.5488">
        <ele>20.007448</ele>
        <time>2021-05-13T19:13:47.033Z</time>
      </trkpt>
      <trkpt lat="50.49764" lon="3.5489">
        <ele>19.970359</ele>
        <time>2021-05-13T19:13:51.495Z</time>
      </trkpt>
      <trkpt lat="50.49757" lon="3.54891">
        <ele>19.963192</ele>
        <time>2021-05-13T19:13:52.314Z</time>
      </trkpt>
      <trkpt lat="50.49752" lon="3.54891">
        <ele>19.958088</ele>
        <time>2021-05-13T19:13:53.014Z</time>
      </trkpt>
      <trkpt lat="50.497" lon="3.54892">
        <ele>19.900749</ele>
        <time>2021-05-13T19:14:01.463Z</time>
      </trkpt>
      <trkpt lat="50.49671" lon="3.54894">
        <ele>19.869896</ele>
        <time>2021-05-13T19:14:06.494Z</time>
      </trkpt>
      <trkpt lat="50.49667" lon="3.54894">
        <ele>19.865765</ele>
        <time>2021-05-13T19:14:07.365Z</time>
      </trkpt>
      <trkpt lat="50.49643" lon="3.54903">
        <ele>20.092386</ele>
        <time>2021-05-13T19:14:12.092Z</time>
      </trkpt>
      <trkpt lat="50.49616" lon="3.54924">
        <ele>20.496037</ele>
        <time>2021-05-13T19:14:18.206Z</time>
      </trkpt>
      <trkpt lat="50.49489" lon="3.55026">
        <ele>22.356777</ele>
        <time>2021-05-13T19:14:48.258Z</time>
      </trkpt>
      <trkpt lat="50.49457" lon="3.54883">
        <ele>23.179233</ele>
        <time>2021-05-13T19:15:12.050Z</time>
      </trkpt>
      <trkpt lat="50.49429" lon="3.54769">
        <ele>23.794699</ele>
        <time>2021-05-13T19:15:29.070Z</time>
      </trkpt>
      <trkpt lat="50.49387" lon="3.54656">
        <ele>23.750825</ele>
        <time>2021-05-13T19:15:45.930Z</time>
      </trkpt>
      <trkpt lat="50.49366" lon="3.54606">
        <ele>23.731064</ele>
        <time>2021-05-13T19:15:53.287Z</time>
      </trkpt>
      <trkpt lat="50.49335" lon="3.54532">
        <ele>23.700568</ele>
        <time>2021-05-13T19:16:04.319Z</time>
      </trkpt>
      <trkpt lat="50.49317" lon="3.54488">
        <ele>23.671745</ele>
        <time>2021-05-13T19:16:10.777Z</time>
      </trkpt>
      <trkpt lat="50.49184" lon="3.54119">
        <ele>23.932521</ele>
        <time>2021-05-13T19:17:04.989Z</time>
      </trkpt>
      <trkpt lat="50.49111" lon="3.53888">
        <ele>25.273872</ele>
        <time>2021-05-13T19:17:45.079Z</time>
      </trkpt>
      <trkpt lat="50.49106" lon="3.53882">
        <ele>25.339132</ele>
        <time>2021-05-13T19:17:46.723Z</time>
      </trkpt>
      <trkpt lat="50.49099" lon="3.53882">
        <ele>25.416028</ele>
        <time>2021-05-13T19:17:48.823Z</time>
      </trkpt>
      <trkpt lat="50.49014" lon="3.53961">
        <ele>26.201931</ele>
        <time>2021-05-13T19:18:12.901Z</time>
      </trkpt>
      <trkpt lat="50.48996" lon="3.53963">
        <ele>26.279569</ele>
        <time>2021-05-13T19:18:17.169Z</time>
      </trkpt>
      <trkpt lat="50.4899" lon="3.53959">
        <ele>26.308497</ele>
        <time>2021-05-13T19:18:18.911Z</time>
      </trkpt>
      <trkpt lat="50.48886" lon="3.53823">
        <ele>26.72272</ele>
        <time>2021-05-13T19:18:46.778Z</time>
      </trkpt>
      <trkpt lat="50.48748" lon="3.53576">
        <ele>25.876992</ele>
        <time>2021-05-13T19:19:26.141Z</time>
      </trkpt>
      <trkpt lat="50.48727" lon="3.53526">
        <ele>25.623198</ele>
        <time>2021-05-13T19:19:33.135Z</time>
      </trkpt>
      <trkpt lat="50.487" lon="3.53441">
        <ele>25.220027</ele>
        <time>2021-05-13T19:19:44.041Z</time>
      </trkpt>
      <trkpt lat="50.48691" lon="3.53411">
        <ele>25.080483</ele>
        <time>2021-05-13T19:19:47.753Z</time>
      </trkpt>
      <trkpt lat="50.4867" lon="3.53368">
        <ele>24.798158</ele>
        <time>2021-05-13T19:19:53.794Z</time>
      </trkpt>
      <trkpt lat="50.48561" lon="3.53127">
        <ele>23.351898</ele>
        <time>2021-05-13T19:20:26.812Z</time>
      </trkpt>
      <trkpt lat="50.48488" lon="3.52966">
        <ele>22.931391</ele>
        <time>2021-05-13T19:20:51.211Z</time>
      </trkpt>
      <trkpt lat="50.48475" lon="3.52943">
        <ele>22.863842</ele>
        <time>2021-05-13T19:20:55.334Z</time>
      </trkpt>
      <trkpt lat="50.48419" lon="3.52886">
        <ele>22.877131</ele>
        <time>2021-05-13T19:21:09.043Z</time>
      </trkpt>
      <trkpt lat="50.48415" lon="3.52878">
        <ele>22.878422</ele>
        <time>2021-05-13T19:21:10.374Z</time>
      </trkpt>
      <trkpt lat="50.48323" lon="3.52606">
        <ele>22.752853</ele>
        <time>2021-05-13T19:21:50.236Z</time>
      </trkpt>
      <trkpt lat="50.48253" lon="3.52479">
        <ele>22.517695</ele>
        <time>2021-05-13T19:22:10.677Z</time>
      </trkpt>
      <trkpt lat="50.48239" lon="3.5245">
        <ele>22.389818</ele>
        <time>2021-05-13T19:22:15.137Z</time>
      </trkpt>
      <trkpt lat="50.48221" lon="3.52418">
        <ele>22.244195</ele>
        <time>2021-05-13T19:22:20.125Z</time>
      </trkpt>
      <trkpt lat="50.48137" lon="3.52251">
        <ele>21.508185</ele>
        <time>2021-05-13T19:22:44.753Z</time>
      </trkpt>
      <trkpt lat="50.48009" lon="3.52064">
        <ele>20.535497</ele>
        <time>2021-05-13T19:23:16.999Z</time>
      </trkpt>
      <trkpt lat="50.47853" lon="3.51812">
        <ele>19.414973</ele>
        <time>2021-05-13T19:23:59.071Z</time>
      </trkpt>
      <trkpt lat="50.47806" lon="3.51737">
        <ele>19.030715</ele>
        <time>2021-05-13T19:24:11.104Z</time>
      </trkpt>
      <trkpt lat="50.4779" lon="3.51711">
        <ele>18.894354</ele>
        <time>2021-05-13T19:24:15.459Z</time>
      </trkpt>
      <trkpt lat="50.47782" lon="3.51698">
        <ele>18.826877</ele>
        <time>2021-05-13T19:24:17.443Z</time>
      </trkpt>
      <trkpt lat="50.47783" lon="3.51663">
        <ele>18.69361</ele>
        <time>2021-05-13T19:24:20.431Z</time>
      </trkpt>
      <trkpt lat="50.47784" lon="3.5165">
        <ele>18.642497</ele>
        <time>2021-05-13T19:24:21.465Z</time>
      </trkpt>
      <trkpt lat="50.47784" lon="3.51643">
        <ele>18.61464</ele>
        <time>2021-05-13T19:24:21.969Z</time>
      </trkpt>
      <trkpt lat="50.47785" lon="3.51628">
        <ele>18.55424</ele>
        <time>2021-05-13T19:24:23.247Z</time>
      </trkpt>
      <trkpt lat="50.47824" lon="3.51488">
        <ele>17.945255</ele>
        <time>2021-05-13T19:24:35.808Z</time>
      </trkpt>
      <trkpt lat="50.47824" lon="3.51488">
        <ele>17.945255</ele>
        <time>2021-05-13T19:24:35.811Z</time>
      </trkpt>
      <trkpt lat="50.47858" lon="3.51324">
        <ele>17.301858</ele>
        <time>2021-05-13T19:24:50.370Z</time>
      </trkpt>
      <trkpt lat="50.47952" lon="3.51044">
        <ele>16.185799</ele>
        <time>2021-05-13T19:25:16.828Z</time>
      </trkpt>
      <trkpt lat="50.47986" lon="3.50967">
        <ele>15.849147</ele>
        <time>2021-05-13T19:25:24.687Z</time>
      </trkpt>
      <trkpt lat="50.48047" lon="3.50871">
        <ele>15.387036</ele>
        <time>2021-05-13T19:25:36.089Z</time>
      </trkpt>
      <trkpt lat="50.48087" lon="3.50718">
        <ele>14.851093</ele>
        <time>2021-05-13T19:25:50.016Z</time>
      </trkpt>
      <trkpt lat="50.48134" lon="3.50632">
        <ele>14.625873</ele>
        <time>2021-05-13T19:25:59.713Z</time>
      </trkpt>
      <trkpt lat="50.48156" lon="3.50601">
        <ele>14.580613</ele>
        <time>2021-05-13T19:26:03.779Z</time>
      </trkpt>
      <trkpt lat="50.48195" lon="3.50547">
        <ele>14.501493</ele>
        <time>2021-05-13T19:26:11.087Z</time>
      </trkpt>
      <trkpt lat="50.48334" lon="3.50262">
        <ele>14.780938</ele>
        <time>2021-05-13T19:26:46.457Z</time>
      </trkpt>
      <trkpt lat="50.48334" lon="3.50155">
        <ele>15.132588</ele>
        <time>2021-05-13T19:26:58.055Z</time>
      </trkpt>
      <trkpt lat="50.48314" lon="3.50065">
        <ele>15.481143</ele>
        <time>2021-05-13T19:27:08.903Z</time>
      </trkpt>
      <trkpt lat="50.48317" lon="3.50036">
        <ele>15.587932</ele>
        <time>2021-05-13T19:27:12.281Z</time>
      </trkpt>
      <trkpt lat="50.48417" lon="3.49873">
        <ele>16.059603</ele>
        <time>2021-05-13T19:27:36.521Z</time>
      </trkpt>
      <trkpt lat="50.48456" lon="3.4981">
        <ele>16.184797</ele>
        <time>2021-05-13T19:27:44.626Z</time>
      </trkpt>
      <trkpt lat="50.48464" lon="3.49803">
        <ele>16.20589</ele>
        <time>2021-05-13T19:27:45.961Z</time>
      </trkpt>
      <trkpt lat="50.4847" lon="3.498">
        <ele>16.220568</ele>
        <time>2021-05-13T19:27:46.918Z</time>
      </trkpt>
      <trkpt lat="50.48475" lon="3.49799">
        <ele>16.232627</ele>
        <time>2021-05-13T19:27:47.685Z</time>
      </trkpt>
      <trkpt lat="50.48497" lon="3.49796">
        <ele>16.180139</ele>
        <time>2021-05-13T19:27:50.629Z</time>
      </trkpt>
      <trkpt lat="50.4851" lon="3.49792">
        <ele>16.142349</ele>
        <time>2021-05-13T19:27:52.567Z</time>
      </trkpt>
      <trkpt lat="50.48526" lon="3.49777">
        <ele>16.091314</ele>
        <time>2021-05-13T19:27:55.038Z</time>
      </trkpt>
      <trkpt lat="50.4857" lon="3.49704">
        <ele>15.913345</ele>
        <time>2021-05-13T19:28:03.683Z</time>
      </trkpt>
      <trkpt lat="50.48604" lon="3.49668">
        <ele>15.798671</ele>
        <time>2021-05-13T19:28:09.166Z</time>
      </trkpt>
      <trkpt lat="50.48628" lon="3.49654">
        <ele>15.734888</ele>
        <time>2021-05-13T19:28:12.868Z</time>
      </trkpt>
      <trkpt lat="50.48684" lon="3.49642">
        <ele>15.750071</ele>
        <time>2021-05-13T19:28:21.487Z</time>
      </trkpt>
      <trkpt lat="50.48731" lon="3.4961">
        <ele>15.763476</ele>
        <time>2021-05-13T19:28:29.104Z</time>
      </trkpt>
      <trkpt lat="50.48736" lon="3.49611">
        <ele>15.764999</ele>
        <time>2021-05-13T19:28:29.978Z</time>
      </trkpt>
      <trkpt lat="50.48765" lon="3.49649">
        <ele>15.774874</ele>
        <time>2021-05-13T19:28:35.495Z</time>
      </trkpt>
      <trkpt lat="50.48847" lon="3.49688">
        <ele>15.91098</ele>
        <time>2021-05-13T19:28:48.802Z</time>
      </trkpt>
      <trkpt lat="50.48861" lon="3.49706">
        <ele>15.950075</ele>
        <time>2021-05-13T19:28:51.700Z</time>
      </trkpt>
      <trkpt lat="50.4887" lon="3.49728">
        <ele>15.987769</ele>
        <time>2021-05-13T19:28:54.317Z</time>
      </trkpt>
      <trkpt lat="50.48879" lon="3.49766">
        <ele>16.042936</ele>
        <time>2021-05-13T19:28:58.333Z</time>
      </trkpt>
      <trkpt lat="50.48906" lon="3.49893">
        <ele>16.249769</ele>
        <time>2021-05-13T19:29:11.911Z</time>
      </trkpt>
      <trkpt lat="50.48908" lon="3.49897">
        <ele>16.26103</ele>
        <time>2021-05-13T19:29:12.468Z</time>
      </trkpt>
      <trkpt lat="50.48911" lon="3.49902">
        <ele>16.274526</ele>
        <time>2021-05-13T19:29:13.322Z</time>
      </trkpt>
      <trkpt lat="50.48914" lon="3.49904">
        <ele>16.285556</ele>
        <time>2021-05-13T19:29:13.832Z</time>
      </trkpt>
      <trkpt lat="50.48927" lon="3.49907">
        <ele>16.324607</ele>
        <time>2021-05-13T19:29:15.965Z</time>
      </trkpt>
      <trkpt lat="50.48934" lon="3.49909">
        <ele>16.34733</ele>
        <time>2021-05-13T19:29:17.162Z</time>
      </trkpt>
      <trkpt lat="50.4895" lon="3.49913">
        <ele>16.396496</ele>
        <time>2021-05-13T19:29:19.814Z</time>
      </trkpt>
      <trkpt lat="50.48953" lon="3.49914">
        <ele>16.405383</ele>
        <time>2021-05-13T19:29:20.402Z</time>
      </trkpt>
      <trkpt lat="50.49" lon="3.49921">
        <ele>16.548055</ele>
        <time>2021-05-13T19:29:28.177Z</time>
      </trkpt>
      <trkpt lat="50.49082" lon="3.49844">
        <ele>16.614476</ele>
        <time>2021-05-13T19:29:42.827Z</time>
      </trkpt>
      <trkpt lat="50.49094" lon="3.49838">
        <ele>16.578958</ele>
        <time>2021-05-13T19:29:44.616Z</time>
      </trkpt>
      <trkpt lat="50.49191" lon="3.49853">
        <ele>16.310509</ele>
        <time>2021-05-13T19:29:57.676Z</time>
      </trkpt>
      <trkpt lat="50.49196" lon="3.49853">
        <ele>16.295019</ele>
        <time>2021-05-13T19:29:58.410Z</time>
      </trkpt>
      <trkpt lat="50.49201" lon="3.49848">
        <ele>16.279845</ele>
        <time>2021-05-13T19:29:59.175Z</time>
      </trkpt>
      <trkpt lat="50.49208" lon="3.49841">
        <ele>16.255681</ele>
        <time>2021-05-13T19:30:00.287Z</time>
      </trkpt>
      <trkpt lat="50.49282" lon="3.49773">
        <ele>16.138186</ele>
        <time>2021-05-13T19:30:12.210Z</time>
      </trkpt>
      <trkpt lat="50.49284" lon="3.49771">
        <ele>16.135249</ele>
        <time>2021-05-13T19:30:12.489Z</time>
      </trkpt>
      <trkpt lat="50.49288" lon="3.49767">
        <ele>16.129512</ele>
        <time>2021-05-13T19:30:13.170Z</time>
      </trkpt>
      <trkpt lat="50.49308" lon="3.49756">
        <ele>16.10494</ele>
        <time>2021-05-13T19:30:16.188Z</time>
      </trkpt>
      <trkpt lat="50.49327" lon="3.49756">
        <ele>16.083561</ele>
        <time>2021-05-13T19:30:18.726Z</time>
      </trkpt>
      <trkpt lat="50.49356" lon="3.49781">
        <ele>16.045374</ele>
        <time>2021-05-13T19:30:23.569Z</time>
      </trkpt>
      <trkpt lat="50.4937" lon="3.49783">
        <ele>16.028662</ele>
        <time>2021-05-13T19:30:25.955Z</time>
      </trkpt>
      <trkpt lat="50.49442" lon="3.49791">
        <ele>16.32193</ele>
        <time>2021-05-13T19:30:38.003Z</time>
      </trkpt>
      <trkpt lat="50.49496" lon="3.49786">
        <ele>16.597577</ele>
        <time>2021-05-13T19:30:47.461Z</time>
      </trkpt>
      <trkpt lat="50.49546" lon="3.49865">
        <ele>16.934578</ele>
        <time>2021-05-13T19:30:59.556Z</time>
      </trkpt>
      <trkpt lat="50.49552" lon="3.49866">
        <ele>16.942923</ele>
        <time>2021-05-13T19:31:00.557Z</time>
      </trkpt>
      <trkpt lat="50.49561" lon="3.49862">
        <ele>16.958679</ele>
        <time>2021-05-13T19:31:02.252Z</time>
      </trkpt>
      <trkpt lat="50.49674" lon="3.49784">
        <ele>17.153649</ele>
        <time>2021-05-13T19:31:21.768Z</time>
      </trkpt>
      <trkpt lat="50.49786" lon="3.49689">
        <ele>16.785772</ele>
        <time>2021-05-13T19:31:39.016Z</time>
      </trkpt>
      <trkpt lat="50.4984" lon="3.49655">
        <ele>16.516788</ele>
        <time>2021-05-13T19:31:46.628Z</time>
      </trkpt>
      <trkpt lat="50.49868" lon="3.49638">
        <ele>16.380105</ele>
        <time>2021-05-13T19:31:50.532Z</time>
      </trkpt>
      <trkpt lat="50.49872" lon="3.49635">
        <ele>16.368484</ele>
        <time>2021-05-13T19:31:51.037Z</time>
      </trkpt>
      <trkpt lat="50.49871" lon="3.49622">
        <ele>16.341606</ele>
        <time>2021-05-13T19:31:52.544Z</time>
      </trkpt>
      <trkpt lat="50.49862" lon="3.49562">
        <ele>16.219591</ele>
        <time>2021-05-13T19:31:59.759Z</time>
      </trkpt>
      <trkpt lat="50.49838" lon="3.49458">
        <ele>15.997956</ele>
        <time>2021-05-13T19:32:13.067Z</time>
      </trkpt>
      <trkpt lat="50.49789" lon="3.49306">
        <ele>15.86744</ele>
        <time>2021-05-13T19:32:35.185Z</time>
      </trkpt>
      <trkpt lat="50.49759" lon="3.49189">
        <ele>15.945717</ele>
        <time>2021-05-13T19:32:51.924Z</time>
      </trkpt>
      <trkpt lat="50.49759" lon="3.49162">
        <ele>15.962629</ele>
        <time>2021-05-13T19:32:55.699Z</time>
      </trkpt>
      <trkpt lat="50.49779" lon="3.49135">
        <ele>15.988753</ele>
        <time>2021-05-13T19:33:01.156Z</time>
      </trkpt>
      <trkpt lat="50.49832" lon="3.49014">
        <ele>16.197756</ele>
        <time>2021-05-13T19:33:20.487Z</time>
      </trkpt>
      <trkpt lat="50.49846" lon="3.48993">
        <ele>16.244812</ele>
        <time>2021-05-13T19:33:24.785Z</time>
      </trkpt>
      <trkpt lat="50.49921" lon="3.48943">
        <ele>16.441751</ele>
        <time>2021-05-13T19:33:41.869Z</time>
      </trkpt>
      <trkpt lat="50.49924" lon="3.48927">
        <ele>16.479028</ele>
        <time>2021-05-13T19:33:44.300Z</time>
      </trkpt>
      <trkpt lat="50.49923" lon="3.48903">
        <ele>16.530356</ele>
        <time>2021-05-13T19:33:47.646Z</time>
      </trkpt>
      <trkpt lat="50.49893" lon="3.48803">
        <ele>16.765127</ele>
        <time>2021-05-13T19:34:03.398Z</time>
      </trkpt>
      <trkpt lat="50.49899" lon="3.48616">
        <ele>16.947108</ele>
        <time>2021-05-13T19:34:28.562Z</time>
      </trkpt>
      <trkpt lat="50.49899" lon="3.48579">
        <ele>16.912935</ele>
        <time>2021-05-13T19:34:33.365Z</time>
      </trkpt>
      <trkpt lat="50.49889" lon="3.48551">
        <ele>16.883724</ele>
        <time>2021-05-13T19:34:37.235Z</time>
      </trkpt>
      <trkpt lat="50.49838" lon="3.48467">
        <ele>16.77582</ele>
        <time>2021-05-13T19:34:51.438Z</time>
      </trkpt>
      <trkpt lat="50.49817" lon="3.48414">
        <ele>16.679065</ele>
        <time>2021-05-13T19:34:58.836Z</time>
      </trkpt>
      <trkpt lat="50.49798" lon="3.48218">
        <ele>16.27628</ele>
        <time>2021-05-13T19:35:22.517Z</time>
      </trkpt>
      <trkpt lat="50.49803" lon="3.48133">
        <ele>16.249008</ele>
        <time>2021-05-13T19:35:33.632Z</time>
      </trkpt>
      <trkpt lat="50.4982" lon="3.48069">
        <ele>16.390394</ele>
        <time>2021-05-13T19:35:42.797Z</time>
      </trkpt>
      <trkpt lat="50.4983" lon="3.47978">
        <ele>16.580093</ele>
        <time>2021-05-13T19:35:55.516Z</time>
      </trkpt>
      <trkpt lat="50.49835" lon="3.47879">
        <ele>16.819332</ele>
        <time>2021-05-13T19:36:09.732Z</time>
      </trkpt>
      <trkpt lat="50.49849" lon="3.47803">
        <ele>17.190663</ele>
        <time>2021-05-13T19:36:21.355Z</time>
      </trkpt>
      <trkpt lat="50.49874" lon="3.47645">
        <ele>17.956951</ele>
        <time>2021-05-13T19:36:46.011Z</time>
      </trkpt>
      <trkpt lat="50.49968" lon="3.47269">
        <ele>19.249997</ele>
        <time>2021-05-13T19:37:44.901Z</time>
      </trkpt>
      <trkpt lat="50.49982" lon="3.47188">
        <ele>19.223674</ele>
        <time>2021-05-13T19:37:55.152Z</time>
      </trkpt>
      <trkpt lat="50.49989" lon="3.47148">
        <ele>19.210706</ele>
        <time>2021-05-13T19:38:00.047Z</time>
      </trkpt>
      <trkpt lat="50.50008" lon="3.47058">
        <ele>19.118471</ele>
        <time>2021-05-13T19:38:11.208Z</time>
      </trkpt>
      <trkpt lat="50.50028" lon="3.46994">
        <ele>18.958541</ele>
        <time>2021-05-13T19:38:19.412Z</time>
      </trkpt>
      <trkpt lat="50.50064" lon="3.46894">
        <ele>18.701219</ele>
        <time>2021-05-13T19:38:32.956Z</time>
      </trkpt>
      <trkpt lat="50.50156" lon="3.46691">
        <ele>18.98553</ele>
        <time>2021-05-13T19:39:06.670Z</time>
      </trkpt>
      <trkpt lat="50.50193" lon="3.46613">
        <ele>19.212761</ele>
        <time>2021-05-13T19:39:20.861Z</time>
      </trkpt>
      <trkpt lat="50.50199" lon="3.46601">
        <ele>19.212761</ele>
        <time>2021-05-13T19:39:23.034Z</time>
      </trkpt>
      <trkpt lat="50.50237" lon="3.4654">
        <ele>19.212761</ele>
        <time>2021-05-13T19:39:35.500Z</time>
      </trkpt>
      <trkpt lat="50.5027" lon="3.46488">
        <ele>19.212761</ele>
        <time>2021-05-13T19:39:46.153Z</time>
      </trkpt>
      <trkpt lat="50.503" lon="3.46432">
        <ele>19.212761</ele>
        <time>2021-05-13T19:39:57.027Z</time>
      </trkpt>
      <trkpt lat="50.50313" lon="3.46411">
        <ele>19.212761</ele>
        <time>2021-05-13T19:40:01.224Z</time>
      </trkpt>
      <trkpt lat="50.50317" lon="3.46374">
        <ele>19.212761</ele>
        <time>2021-05-13T19:40:05.166Z</time>
      </trkpt>
      <trkpt lat="50.50325" lon="3.46307">
        <ele>19.212761</ele>
        <time>2021-05-13T19:40:11.942Z</time>
      </trkpt>
    </trkseg>
  </trk>
</gpx>